Observation data for Sierra Blanca on 03/23/2019      Previous  Date  Next       Current Mesonet Observations  Soil Data  Daily Summary Page  Observations in Plain Language
KSB1 230500Z 31010KT 16/M08 A3008 RMK A01 T01551077  RH  020%=      5-min Rain = 0
KSB1 230501Z 30011KT 16/M08 A3008 RMK A01 T01551077  RH  020%=      5-min Rain = 0
KSB1 230502Z 30010KT 16/M08 A3008 RMK A01 T01551076  RH  020%=      5-min Rain = 0
KSB1 230503Z 30011KT 15/M08 A3008 RMK A01 T01541076  RH  020%=      5-min Rain = 0
KSB1 230504Z 30011KT 15/M08 A3008 RMK A01 T01541076  RH  020%=      5-min Rain = 0
KSB1 230505Z 30010KT 15/M08 A3008 RMK A01 T01531077  RH  020%=      5-min Rain = 0
KSB1 230506Z 30010KT 15/M08 A3008 RMK A01 T01541076  RH  020%=      5-min Rain = 0
KSB1 230507Z 30010KT 15/M08 A3008 RMK A01 T01531076  RH  020%=      5-min Rain = 0
KSB1 230508Z 30011KT 15/M08 A3008 RMK A01 T01521076  RH  020%=      5-min Rain = 0
KSB1 230509Z 30011KT 15/M08 A3008 RMK A01 T01521076  RH  020%=      5-min Rain = 0
KSB1 230510Z 30011KT 15/M08 A3008 RMK A01 T01531077  RH  020%=      5-min Rain = 0
KSB1 230511Z 30011KT 15/M08 A3008 RMK A01 T01521077  RH  020%=      5-min Rain = 0
KSB1 230512Z 30011KT 15/M08 A3008 RMK A01 T01521076  RH  020%=      5-min Rain = 0
KSB1 230513Z 30012KT 15/M08 A3008 RMK A01 T01521077  RH  020%=      5-min Rain = 0
KSB1 230514Z 30011KT 15/M08 A3009 RMK A01 T01521077  RH  020%=      5-min Rain = 0
KSB1 230515Z 30012KT 15/M08 A3008 RMK A01 T01521077  RH  020%=      5-min Rain = 0
KSB1 230516Z 30012KT 15/M08 A3009 RMK A01 T01521078  RH  020%=      5-min Rain = 0
KSB1 230517Z 30011KT 15/M08 A3009 RMK A01 T01531078  RH  020%=      5-min Rain = 0
KSB1 230518Z 30012KT 15/M08 A3009 RMK A01 T01521078  RH  020%=      5-min Rain = 0
KSB1 230519Z 30011KT 15/M08 A3008 RMK A01 T01521078  RH  020%=      5-min Rain = 0
KSB1 230520Z 30011KT 15/M08 A3009 RMK A01 T01521079  RH  020%=      5-min Rain = 0
KSB1 230521Z 30011KT 15/M08 A3009 RMK A01 T01521078  RH  020%=      5-min Rain = 0
KSB1 230522Z 31011KT 15/M08 A3008 RMK A01 T01511078  RH  020%=      5-min Rain = 0
KSB1 230523Z 30011KT 15/M08 A3008 RMK A01 T01501078  RH  020%=      5-min Rain = 0
KSB1 230524Z 30010KT 15/M08 A3008 RMK A01 T01491078  RH  020%=      5-min Rain = 0
KSB1 230525Z 31011KT 15/M08 A3008 RMK A01 T01481078  RH  020%=      5-min Rain = 0
KSB1 230526Z 31012KT 15/M08 A3008 RMK A01 T01481079  RH  020%=      5-min Rain = 0
KSB1 230527Z 31011KT 15/M08 A3008 RMK A01 T01481081  RH  020%=      5-min Rain = 0
KSB1 230528Z 31012KT 15/M08 A3009 RMK A01 T01481083  RH  020%=      5-min Rain = 0
KSB1 230529Z 31011KT 15/M09 A3008 RMK A01 T01491085  RH  019%=      5-min Rain = 0
KSB1 230530Z 31011KT 15/M09 A3009 RMK A01 T01491085  RH  019%=      5-min Rain = 0
KSB1 230531Z 31011KT 15/M08 A3009 RMK A01 T01481083  RH  019%=      5-min Rain = 0
KSB1 230532Z 31012KT 15/M08 A3009 RMK A01 T01481083  RH  019%=      5-min Rain = 0
KSB1 230533Z 31010KT 15/M09 A3009 RMK A01 T01481085  RH  019%=      5-min Rain = 0
KSB1 230534Z 31011KT 15/M09 A3009 RMK A01 T01481085  RH  019%=      5-min Rain = 0
KSB1 230535Z 31011KT 15/M09 A3009 RMK A01 T01471085  RH  019%=      5-min Rain = 0
KSB1 230536Z 31011KT 15/M08 A3009 RMK A01 T01461084  RH  020%=      5-min Rain = 0
KSB1 230537Z 31011KT 15/M09 A3009 RMK A01 T01461085  RH  020%=      5-min Rain = 0
KSB1 230538Z 31011KT 15/M09 A3009 RMK A01 T01451086  RH  019%=      5-min Rain = 0
KSB1 230539Z 31011KT 15/M09 A3009 RMK A01 T01451087  RH  019%=      5-min Rain = 0
KSB1 230540Z 31011KT 15/M09 A3009 RMK A01 T01451087  RH  019%=      5-min Rain = 0
KSB1 230541Z 31011KT 15/M09 A3009 RMK A01 T01461087  RH  019%=      5-min Rain = 0
KSB1 230542Z 31010KT 15/M09 A3009 RMK A01 T01461087  RH  019%=      5-min Rain = 0
KSB1 230543Z 31010KT 15/M09 A3009 RMK A01 T01451087  RH  019%=      5-min Rain = 0
KSB1 230544Z 31011KT 15/M09 A3009 RMK A01 T01451088  RH  019%=      5-min Rain = 0
KSB1 230545Z 31010KT 15/M09 A3009 RMK A01 T01451089  RH  019%=      5-min Rain = 0
KSB1 230546Z 31010KT 14/M09 A3009 RMK A01 T01441090  RH  019%=      5-min Rain = 0
KSB1 230547Z 31010KT 14/M09 A3009 RMK A01 T01441090  RH  019%=      5-min Rain = 0
KSB1 230548Z 31010KT 14/M09 A3009 RMK A01 T01441091  RH  019%=      5-min Rain = 0
KSB1 230549Z 31010KT 14/M09 A3009 RMK A01 T01441091  RH  019%=      5-min Rain = 0
KSB1 230550Z 31010KT 14/M09 A3009 RMK A01 T01441091  RH  019%=      5-min Rain = 0
KSB1 230551Z 32010KT 14/M09 A3009 RMK A01 T01431092  RH  019%=      5-min Rain = 0
KSB1 230552Z 32011KT 14/M09 A3009 RMK A01 T01431093  RH  019%=      5-min Rain = 0
KSB1 230553Z 32011KT 14/M09 A3009 RMK A01 T01431094  RH  018%=      5-min Rain = 0
KSB1 230554Z 32011KT 14/M09 A3009 RMK A01 T01441094  RH  018%=      5-min Rain = 0
KSB1 230555Z 32010KT 14/M09 A3009 RMK A01 T01441094  RH  018%=      5-min Rain = 0
KSB1 230556Z 31009KT 14/M09 A3009 RMK A01 T01441093  RH  019%=      5-min Rain = 0
KSB1 230557Z 31009KT 14/M09 A3009 RMK A01 T01431093  RH  019%=      5-min Rain = 0
KSB1 230558Z 31009KT 14/M09 A3009 RMK A01 T01421093  RH  019%=      5-min Rain = 0
KSB1 230559Z 31009KT 14/M09 A3009 RMK A01 T01411094  RH  019%=      5-min Rain = 0
KSB1 230600Z 31009KT 14/M09 A3009 RMK A01 T01421093  RH  019%=      5-min Rain = 0
KSB1 230601Z 31008KT 14/M09 A3009 RMK A01 T01411093  RH  019%=      5-min Rain = 0
KSB1 230602Z 31009KT 14/M09 A3009 RMK A01 T01401093  RH  019%=      5-min Rain = 0
KSB1 230603Z 31009KT 14/M09 A3009 RMK A01 T01401094  RH  019%=      5-min Rain = 0
KSB1 230604Z 31009KT 14/M10 A3009 RMK A01 T01401095  RH  019%=      5-min Rain = 0
KSB1 230605Z 32009KT 14/M10 A3009 RMK A01 T01401095  RH  019%=      5-min Rain = 0
KSB1 230606Z 32009KT 14/M10 A3009 RMK A01 T01401095  RH  019%=      5-min Rain = 0
KSB1 230607Z 31009KT 14/M10 A3009 RMK A01 T01401095  RH  019%=      5-min Rain = 0
KSB1 230608Z 32009KT 14/M10 A3009 RMK A01 T01401096  RH  018%=      5-min Rain = 0
KSB1 230609Z 31009KT 14/M10 A3009 RMK A01 T01401096  RH  019%=      5-min Rain = 0
KSB1 230610Z 31009KT 14/M10 A3009 RMK A01 T01401096  RH  019%=      5-min Rain = 0
KSB1 230611Z 31009KT 14/M10 A3009 RMK A01 T01401096  RH  019%=      5-min Rain = 0
KSB1 230612Z 31008KT 14/M10 A3009 RMK A01 T01391096  RH  019%=      5-min Rain = 0
KSB1 230613Z 31008KT 14/M10 A3009 RMK A01 T01391096  RH  019%=      5-min Rain = 0
KSB1 230614Z 31008KT 14/M10 A3009 RMK A01 T01391096  RH  019%=      5-min Rain = 0
KSB1 230615Z 31008KT 14/M10 A3009 RMK A01 T01391096  RH  019%=      5-min Rain = 0
KSB1 230616Z 31008KT 14/M10 A3009 RMK A01 T01391097  RH  019%=      5-min Rain = 0
KSB1 230617Z 31008KT 14/M10 A3009 RMK A01 T01381097  RH  019%=      5-min Rain = 0
KSB1 230618Z 31008KT 14/M10 A3009 RMK A01 T01381097  RH  019%=      5-min Rain = 0
KSB1 230619Z 31008KT 14/M10 A3009 RMK A01 T01381097  RH  019%=      5-min Rain = 0
KSB1 230620Z 31008KT 14/M10 A3009 RMK A01 T01381098  RH  019%=      5-min Rain = 0
KSB1 230621Z 31008KT 14/M10 A3009 RMK A01 T01381097  RH  019%=      5-min Rain = 0
KSB1 230622Z 31008KT 14/M10 A3009 RMK A01 T01381098  RH  019%=      5-min Rain = 0
KSB1 230623Z 31008KT 14/M10 A3009 RMK A01 T01381097  RH  019%=      5-min Rain = 0
KSB1 230624Z 31008KT 14/M10 A3009 RMK A01 T01371098  RH  019%=      5-min Rain = 0
KSB1 230625Z 31008KT 14/M10 A3009 RMK A01 T01371098  RH  019%=      5-min Rain = 0
KSB1 230626Z 31008KT 14/M10 A3009 RMK A01 T01371098  RH  019%=      5-min Rain = 0
KSB1 230627Z 31008KT 14/M10 A3009 RMK A01 T01371098  RH  019%=      5-min Rain = 0
KSB1 230628Z 31008KT 14/M10 A3009 RMK A01 T01371099  RH  019%=      5-min Rain = 0
KSB1 230629Z 31008KT 14/M10 A3009 RMK A01 T01371099  RH  019%=      5-min Rain = 0
KSB1 230630Z 31009KT 14/M10 A3009 RMK A01 T01371099  RH  019%=      5-min Rain = 0
KSB1 230631Z 31009KT 14/M10 A3009 RMK A01 T01371098  RH  019%=      5-min Rain = 0
KSB1 230632Z 32009KT 14/M10 A3009 RMK A01 T01371098  RH  019%=      5-min Rain = 0
KSB1 230633Z 32009KT 14/M10 A3009 RMK A01 T01361099  RH  019%=      5-min Rain = 0
KSB1 230634Z 32008KT 14/M10 A3009 RMK A01 T01361099  RH  019%=      5-min Rain = 0
KSB1 230635Z 32009KT 14/M10 A3009 RMK A01 T01361099  RH  019%=      5-min Rain = 0
KSB1 230636Z 32008KT 14/M10 A3009 RMK A01 T01351099  RH  019%=      5-min Rain = 0
KSB1 230637Z 32008KT 14/M10 A3009 RMK A01 T01351098  RH  019%=      5-min Rain = 0
KSB1 230638Z 32008KT 14/M10 A3009 RMK A01 T01351098  RH  019%=      5-min Rain = 0
KSB1 230639Z 32008KT 14/M10 A3009 RMK A01 T01351099  RH  019%=      5-min Rain = 0
KSB1 230640Z 32008KT 14/M10 A3009 RMK A01 T01351099  RH  019%=      5-min Rain = 0
KSB1 230641Z 32008KT 14/M10 A3009 RMK A01 T01351100  RH  019%=      5-min Rain = 0
KSB1 230642Z 32007KT 14/M10 A3009 RMK A01 T01361099  RH  019%=      5-min Rain = 0
KSB1 230643Z 32007KT 14/M10 A3009 RMK A01 T01361099  RH  019%=      5-min Rain = 0
KSB1 230644Z 31007KT 14/M10 A3009 RMK A01 T01361100  RH  018%=      5-min Rain = 0
KSB1 230645Z 32007KT 14/M10 A3009 RMK A01 T01361100  RH  018%=      5-min Rain = 0
KSB1 230646Z 32007KT 14/M10 A3009 RMK A01 T01361100  RH  018%=      5-min Rain = 0
KSB1 230647Z 32007KT 14/M10 A3009 RMK A01 T01371101  RH  018%=      5-min Rain = 0
KSB1 230648Z 32007KT 14/M10 A3009 RMK A01 T01381102  RH  018%=      5-min Rain = 0
KSB1 230649Z 32007KT 14/M10 A3009 RMK A01 T01381101  RH  018%=      5-min Rain = 0
KSB1 230650Z 32006KT 14/M10 A3009 RMK A01 T01391100  RH  018%=      5-min Rain = 0
KSB1 230651Z 32006KT 14/M10 A3009 RMK A01 T01381100  RH  018%=      5-min Rain = 0
KSB1 230652Z 31006KT 14/M10 A3009 RMK A01 T01371099  RH  018%=      5-min Rain = 0
KSB1 230653Z 31006KT 14/M10 A3009 RMK A01 T01361100  RH  018%=      5-min Rain = 0
KSB1 230654Z 31006KT 14/M10 A3009 RMK A01 T01361100  RH  018%=      5-min Rain = 0
KSB1 230655Z 31006KT 14/M10 A3009 RMK A01 T01361099  RH  019%=      5-min Rain = 0
KSB1 230656Z 31006KT 14/M10 A3009 RMK A01 T01351099  RH  019%=      5-min Rain = 0
KSB1 230657Z 31006KT 13/M10 A3009 RMK A01 T01341099  RH  019%=      5-min Rain = 0
KSB1 230658Z 31005KT 13/M10 A3009 RMK A01 T01331096  RH  019%=      5-min Rain = 0
KSB1 230659Z 30004KT 13/M09 A3009 RMK A01 T01271094  RH  020%=      5-min Rain = 0
KSB1 230700Z 30005KT 12/M09 A3009 RMK A01 T01221094  RH  021%=      5-min Rain = 0
KSB1 230701Z 31006KT 12/M09 A3009 RMK A01 T01201094  RH  021%=      5-min Rain = 0
KSB1 230702Z 31006KT 12/M09 A3009 RMK A01 T01191093  RH  022%=      5-min Rain = 0
KSB1 230703Z 31006KT 12/M09 A3009 RMK A01 T01181093  RH  022%=      5-min Rain = 0
KSB1 230704Z 31006KT 12/M09 A3009 RMK A01 T01181092  RH  022%=      5-min Rain = 0
KSB1 230705Z 31007KT 12/M09 A3009 RMK A01 T01181092  RH  022%=      5-min Rain = 0
KSB1 230706Z 31008KT 12/M09 A3009 RMK A01 T01181093  RH  022%=      5-min Rain = 0
KSB1 230707Z 31008KT 12/M10 A3009 RMK A01 T01221095  RH  021%=      5-min Rain = 0
KSB1 230708Z 31007KT 13/M09 A3009 RMK A01 T01251094  RH  021%=      5-min Rain = 0
KSB1 230709Z 31007KT 12/M09 A3009 RMK A01 T01241092  RH  021%=      5-min Rain = 0
KSB1 230710Z 30008KT 12/M09 A3009 RMK A01 T01221092  RH  021%=      5-min Rain = 0
KSB1 230711Z 30008KT 12/M09 A3009 RMK A01 T01221093  RH  021%=      5-min Rain = 0
KSB1 230712Z 30007KT 13/M09 A3009 RMK A01 T01251094  RH  021%=      5-min Rain = 0
KSB1 230713Z 28008KT 13/M09 A3009 RMK A01 T01251093  RH  021%=      5-min Rain = 0
KSB1 230714Z 29007KT 12/M09 A3009 RMK A01 T01221093  RH  021%=      5-min Rain = 0
KSB1 230715Z 29007KT 12/M09 A3009 RMK A01 T01201093  RH  022%=      5-min Rain = 0
KSB1 230716Z 29007KT 12/M09 A3009 RMK A01 T01191093  RH  022%=      5-min Rain = 0
KSB1 230717Z 29006KT 12/M09 A3009 RMK A01 T01191093  RH  022%=      5-min Rain = 0
KSB1 230718Z 28007KT 12/M09 A3009 RMK A01 T01181092  RH  022%=      5-min Rain = 0
KSB1 230719Z 29008KT 12/M09 A3009 RMK A01 T01171093  RH  022%=      5-min Rain = 0
KSB1 230720Z 28007KT 12/M09 A3009 RMK A01 T01171093  RH  022%=      5-min Rain = 0
KSB1 230721Z 29007KT 12/M09 A3009 RMK A01 T01181093  RH  022%=      5-min Rain = 0
KSB1 230722Z 28007KT 12/M09 A3009 RMK A01 T01181094  RH  022%=      5-min Rain = 0
KSB1 230723Z 28007KT 12/M09 A3009 RMK A01 T01171093  RH  022%=      5-min Rain = 0
KSB1 230724Z 28007KT 12/M09 A3009 RMK A01 T01171093  RH  022%=      5-min Rain = 0
KSB1 230725Z 28007KT 12/M09 A3009 RMK A01 T01161093  RH  022%=      5-min Rain = 0
KSB1 230726Z 28007KT 12/M09 A3009 RMK A01 T01161093  RH  022%=      5-min Rain = 0
KSB1 230727Z 28007KT 12/M09 A3009 RMK A01 T01161092  RH  022%=      5-min Rain = 0
KSB1 230728Z 28007KT 12/M09 A3009 RMK A01 T01161092  RH  022%=      5-min Rain = 0
KSB1 230729Z 29008KT 12/M09 A3009 RMK A01 T01151092  RH  022%=      5-min Rain = 0
KSB1 230730Z 29007KT 12/M09 A3009 RMK A01 T01161093  RH  022%=      5-min Rain = 0
KSB1 230731Z 29007KT 12/M09 A3009 RMK A01 T01171094  RH  022%=      5-min Rain = 0
KSB1 230732Z 28007KT 12/M09 A3009 RMK A01 T01191094  RH  022%=      5-min Rain = 0
KSB1 230733Z 28007KT 12/M09 A3009 RMK A01 T01191093  RH  022%=      5-min Rain = 0
KSB1 230734Z 29007KT 12/M09 A3009 RMK A01 T01191093  RH  022%=      5-min Rain = 0
KSB1 230735Z 29007KT 12/M09 A3009 RMK A01 T01191094  RH  022%=      5-min Rain = 0
KSB1 230736Z 29008KT 12/M09 A3009 RMK A01 T01211093  RH  021%=      5-min Rain = 0
KSB1 230737Z 29007KT 12/M09 A3009 RMK A01 T01211094  RH  021%=      5-min Rain = 0
KSB1 230738Z 29007KT 12/M10 A3009 RMK A01 T01221095  RH  021%=      5-min Rain = 0
KSB1 230739Z 30007KT 12/M10 A3009 RMK A01 T01231095  RH  021%=      5-min Rain = 0
KSB1 230740Z 30006KT 12/M10 A3009 RMK A01 T01241095  RH  021%=      5-min Rain = 0
KSB1 230741Z 30007KT 13/M09 A3009 RMK A01 T01251094  RH  021%=      5-min Rain = 0
KSB1 230742Z 30007KT 13/M09 A3009 RMK A01 T01261093  RH  021%=      5-min Rain = 0
KSB1 230743Z 30007KT 13/M09 A3009 RMK A01 T01261091  RH  021%=      5-min Rain = 0
KSB1 230744Z 30007KT 13/M09 A3009 RMK A01 T01271091  RH  021%=      5-min Rain = 0
KSB1 230745Z 30008KT 13/M09 A3009 RMK A01 T01291091  RH  021%=      5-min Rain = 0
KSB1 230746Z 30008KT 13/M09 A3009 RMK A01 T01301090  RH  021%=      5-min Rain = 0
KSB1 230747Z 30007KT 13/M09 A3009 RMK A01 T01311090  RH  021%=      5-min Rain = 0
KSB1 230748Z 31007KT 13/M09 A3009 RMK A01 T01311090  RH  021%=      5-min Rain = 0
KSB1 230749Z 32007KT 13/M09 A3009 RMK A01 T01311090  RH  021%=      5-min Rain = 0
KSB1 230750Z 32007KT 13/M09 A3009 RMK A01 T01311091  RH  020%=      5-min Rain = 0
KSB1 230751Z 32008KT 13/M09 A3009 RMK A01 T01311093  RH  020%=      5-min Rain = 0
KSB1 230752Z 32007KT 13/M09 A3009 RMK A01 T01311094  RH  020%=      5-min Rain = 0
KSB1 230753Z 32007KT 13/M09 A3009 RMK A01 T01311094  RH  020%=      5-min Rain = 0
KSB1 230754Z 32007KT 13/M10 A3009 RMK A01 T01311095  RH  020%=      5-min Rain = 0
KSB1 230755Z 32007KT 13/M09 A3009 RMK A01 T01301094  RH  020%=      5-min Rain = 0
KSB1 230756Z 32007KT 13/M10 A3009 RMK A01 T01301095  RH  020%=      5-min Rain = 0
KSB1 230757Z 32007KT 13/M09 A3009 RMK A01 T01301094  RH  020%=      5-min Rain = 0
KSB1 230758Z 32007KT 13/M09 A3009 RMK A01 T01291094  RH  020%=      5-min Rain = 0
KSB1 230759Z 32007KT 13/M09 A3009 RMK A01 T01281094  RH  020%=      5-min Rain = 0
KSB1 230800Z 32007KT 13/M09 A3009 RMK A01 T01281093  RH  021%=      5-min Rain = 0
KSB1 230801Z 32007KT 13/M09 A3009 RMK A01 T01281093  RH  021%=      5-min Rain = 0
KSB1 230802Z 32008KT 13/M09 A3009 RMK A01 T01271093  RH  021%=      5-min Rain = 0
KSB1 230803Z 32008KT 13/M09 A3009 RMK A01 T01271093  RH  021%=      5-min Rain = 0
KSB1 230804Z 32008KT 13/M09 A3009 RMK A01 T01271092  RH  021%=      5-min Rain = 0
KSB1 230805Z 32008KT 13/M09 A3009 RMK A01 T01261092  RH  021%=      5-min Rain = 0
KSB1 230806Z 32008KT 13/M09 A3009 RMK A01 T01261092  RH  021%=      5-min Rain = 0
KSB1 230807Z 32009KT 13/M09 A3009 RMK A01 T01251091  RH  021%=      5-min Rain = 0
KSB1 230808Z 32009KT 13/M09 A3009 RMK A01 T01251091  RH  021%=      5-min Rain = 0
KSB1 230809Z 32009KT 12/M09 A3009 RMK A01 T01241090  RH  022%=      5-min Rain = 0
KSB1 230810Z 32009KT 12/M09 A3009 RMK A01 T01241089  RH  022%=      5-min Rain = 0
KSB1 230811Z 32009KT 12/M09 A3009 RMK A01 T01241089  RH  022%=      5-min Rain = 0
KSB1 230812Z 32009KT 12/M09 A3009 RMK A01 T01241089  RH  022%=      5-min Rain = 0
KSB1 230813Z 32009KT 12/M09 A3009 RMK A01 T01241089  RH  022%=      5-min Rain = 0
KSB1 230814Z 32009KT 12/M09 A3009 RMK A01 T01231088  RH  022%=      5-min Rain = 0
KSB1 230815Z 32009KT 12/M09 A3009 RMK A01 T01231088  RH  022%=      5-min Rain = 0
KSB1 230816Z 32009KT 12/M09 A3009 RMK A01 T01231088  RH  022%=      5-min Rain = 0
KSB1 230817Z 32009KT 12/M09 A3009 RMK A01 T01231087  RH  022%=      5-min Rain = 0
KSB1 230818Z 31009KT 12/M09 A3009 RMK A01 T01231088  RH  022%=      5-min Rain = 0
KSB1 230819Z 32008KT 12/M09 A3009 RMK A01 T01221087  RH  022%=      5-min Rain = 0
KSB1 230820Z 32008KT 12/M09 A3009 RMK A01 T01221087  RH  022%=      5-min Rain = 0
KSB1 230821Z 31008KT 12/M09 A3009 RMK A01 T01221088  RH  022%=      5-min Rain = 0
KSB1 230822Z 31008KT 12/M09 A3009 RMK A01 T01221087  RH  022%=      5-min Rain = 0
KSB1 230823Z 30008KT 12/M09 A3008 RMK A01 T01221087  RH  022%=      5-min Rain = 0
KSB1 230824Z 30008KT 12/M09 A3008 RMK A01 T01221087  RH  022%=      5-min Rain = 0
KSB1 230825Z 30008KT 12/M09 A3008 RMK A01 T01231087  RH  022%=      5-min Rain = 0
KSB1 230826Z 30008KT 12/M09 A3008 RMK A01 T01241087  RH  022%=      5-min Rain = 0
KSB1 230827Z 29008KT 13/M09 A3008 RMK A01 T01251088  RH  022%=      5-min Rain = 0
KSB1 230828Z 29007KT 13/M09 A3008 RMK A01 T01251088  RH  022%=      5-min Rain = 0
KSB1 230829Z 30007KT 13/M09 A3008 RMK A01 T01261087  RH  022%=      5-min Rain = 0
KSB1 230830Z 29007KT 13/M09 A3008 RMK A01 T01261088  RH  022%=      5-min Rain = 0
KSB1 230831Z 29007KT 13/M09 A3008 RMK A01 T01271088  RH  022%=      5-min Rain = 0
KSB1 230832Z 29007KT 13/M09 A3008 RMK A01 T01271088  RH  022%=      5-min Rain = 0
KSB1 230833Z 29008KT 13/M09 A3008 RMK A01 T01271088  RH  022%=      5-min Rain = 0
KSB1 230834Z 29007KT 13/M09 A3008 RMK A01 T01261088  RH  022%=      5-min Rain = 0
KSB1 230835Z 29007KT 13/M09 A3008 RMK A01 T01251086  RH  022%=      5-min Rain = 0
KSB1 230836Z 30008KT 12/M09 A3008 RMK A01 T01241087  RH  022%=      5-min Rain = 0
KSB1 230837Z 31008KT 13/M09 A3008 RMK A01 T01251088  RH  022%=      5-min Rain = 0
KSB1 230838Z 31009KT 13/M09 A3008 RMK A01 T01251087  RH  022%=      5-min Rain = 0
KSB1 230839Z 31010KT 12/M09 A3008 RMK A01 T01231087  RH  022%=      5-min Rain = 0
KSB1 230840Z 32010KT 12/M09 A3008 RMK A01 T01221086  RH  023%=      5-min Rain = 0
KSB1 230841Z 32010KT 12/M09 A3008 RMK A01 T01211086  RH  023%=      5-min Rain = 0
KSB1 230842Z 31010KT 12/M09 A3008 RMK A01 T01201086  RH  023%=      5-min Rain = 0
KSB1 230843Z 31010KT 12/M09 A3009 RMK A01 T01201086  RH  023%=      5-min Rain = 0
KSB1 230844Z 31010KT 12/M09 A3009 RMK A01 T01201086  RH  023%=      5-min Rain = 0
KSB1 230845Z 31010KT 12/M09 A3009 RMK A01 T01201087  RH  023%=      5-min Rain = 0
KSB1 230846Z 31010KT 12/M09 A3009 RMK A01 T01201087  RH  023%=      5-min Rain = 0
KSB1 230847Z 31010KT 12/M09 A3009 RMK A01 T01201087  RH  023%=      5-min Rain = 0
KSB1 230848Z 31009KT 12/M09 A3009 RMK A01 T01201086  RH  023%=      5-min Rain = 0
KSB1 230849Z 31009KT 12/M09 A3009 RMK A01 T01201086  RH  023%=      5-min Rain = 0
KSB1 230850Z 31009KT 12/M09 A3009 RMK A01 T01201086  RH  023%=      5-min Rain = 0
KSB1 230851Z 31010KT 12/M09 A3009 RMK A01 T01201086  RH  023%=      5-min Rain = 0
KSB1 230852Z 31010KT 12/M09 A3009 RMK A01 T01201085  RH  023%=      5-min Rain = 0
KSB1 230853Z 30008KT 12/M08 A3009 RMK A01 T01211084  RH  023%=      5-min Rain = 0
KSB1 230854Z 28005KT 12/M08 A3009 RMK A01 T01171084  RH  024%=      5-min Rain = 0
KSB1 230855Z 29005KT 11/M09 A3009 RMK A01 T01091085  RH  025%=      5-min Rain = 0
KSB1 230856Z 30005KT 10/M08 A3009 RMK A01 T01041084  RH  026%=      5-min Rain = 0
KSB1 230857Z 31008KT 10/M08 A3009 RMK A01 T01021083  RH  026%=      5-min Rain = 0
KSB1 230858Z 31009KT 11/M08 A3008 RMK A01 T01051082  RH  026%=      5-min Rain = 0
KSB1 230859Z 29006KT 11/M08 A3009 RMK A01 T01091082  RH  025%=      5-min Rain = 0
KSB1 230900Z 28006KT 11/M08 A3008 RMK A01 T01081082  RH  025%=      5-min Rain = 0
KSB1 230901Z 29007KT 10/M08 A3008 RMK A01 T01041082  RH  026%=      5-min Rain = 0
KSB1 230902Z 29007KT 10/M08 A3008 RMK A01 T01021082  RH  027%=      5-min Rain = 0
KSB1 230903Z 29007KT 10/M08 A3008 RMK A01 T01021082  RH  027%=      5-min Rain = 0
KSB1 230904Z 29007KT 10/M08 A3008 RMK A01 T01021080  RH  027%=      5-min Rain = 0
KSB1 230905Z 29007KT 10/M08 A3008 RMK A01 T01011081  RH  027%=      5-min Rain = 0
KSB1 230906Z 29007KT 10/M08 A3008 RMK A01 T01041081  RH  026%=      5-min Rain = 0
KSB1 230907Z 29007KT 11/M08 A3008 RMK A01 T01071082  RH  026%=      5-min Rain = 0
KSB1 230908Z 29008KT 11/M08 A3008 RMK A01 T01111083  RH  025%=      5-min Rain = 0
KSB1 230909Z 29008KT 12/M08 A3008 RMK A01 T01151084  RH  024%=      5-min Rain = 0
KSB1 230910Z 29007KT 12/M08 A3008 RMK A01 T01171084  RH  024%=      5-min Rain = 0
KSB1 230911Z 29007KT 12/M08 A3008 RMK A01 T01201084  RH  023%=      5-min Rain = 0
KSB1 230912Z 29008KT 12/M08 A3008 RMK A01 T01201084  RH  023%=      5-min Rain = 0
KSB1 230913Z 29008KT 12/M09 A3008 RMK A01 T01201085  RH  023%=      5-min Rain = 0
KSB1 230914Z 30008KT 12/M09 A3008 RMK A01 T01231085  RH  023%=      5-min Rain = 0
KSB1 230915Z 29007KT 13/M09 A3008 RMK A01 T01251085  RH  022%=      5-min Rain = 0
KSB1 230916Z 29007KT 13/M09 A3008 RMK A01 T01261085  RH  022%=      5-min Rain = 0
KSB1 230917Z 29008KT 13/M08 A3008 RMK A01 T01261084  RH  022%=      5-min Rain = 0
KSB1 230918Z 29007KT 13/M09 A3008 RMK A01 T01261085  RH  022%=      5-min Rain = 0
KSB1 230919Z 29007KT 13/M08 A3008 RMK A01 T01261084  RH  022%=      5-min Rain = 0
KSB1 230920Z 29007KT 13/M08 A3008 RMK A01 T01251084  RH  022%=      5-min Rain = 0
KSB1 230921Z 30006KT 13/M08 A3008 RMK A01 T01251084  RH  022%=      5-min Rain = 0
KSB1 230922Z 29006KT 12/M08 A3008 RMK A01 T01241084  RH  023%=      5-min Rain = 0
KSB1 230923Z 29006KT 12/M08 A3008 RMK A01 T01231084  RH  023%=      5-min Rain = 0
KSB1 230924Z 29007KT 12/M08 A3008 RMK A01 T01221084  RH  023%=      5-min Rain = 0
KSB1 230925Z 29008KT 12/M08 A3008 RMK A01 T01221084  RH  023%=      5-min Rain = 0
KSB1 230926Z 30007KT 12/M08 A3008 RMK A01 T01221084  RH  023%=      5-min Rain = 0
KSB1 230927Z 30007KT 12/M08 A3008 RMK A01 T01231084  RH  023%=      5-min Rain = 0
KSB1 230928Z 30007KT 12/M08 A3008 RMK A01 T01231083  RH  023%=      5-min Rain = 0
KSB1 230929Z 29008KT 12/M08 A3009 RMK A01 T01231083  RH  023%=      5-min Rain = 0
KSB1 230930Z 30008KT 12/M08 A3008 RMK A01 T01221083  RH  023%=      5-min Rain = 0
KSB1 230931Z 30008KT 12/M08 A3009 RMK A01 T01221083  RH  023%=      5-min Rain = 0
KSB1 230932Z 30009KT 12/M08 A3009 RMK A01 T01221083  RH  023%=      5-min Rain = 0
KSB1 230933Z 30007KT 12/M08 A3008 RMK A01 T01221084  RH  023%=      5-min Rain = 0
KSB1 230934Z 30008KT 12/M08 A3008 RMK A01 T01231083  RH  023%=      5-min Rain = 0
KSB1 230935Z 30008KT 12/M08 A3008 RMK A01 T01221083  RH  023%=      5-min Rain = 0
KSB1 230936Z 30007KT 12/M08 A3008 RMK A01 T01211083  RH  023%=      5-min Rain = 0
KSB1 230937Z 29008KT 12/M08 A3008 RMK A01 T01211083  RH  023%=      5-min Rain = 0
KSB1 230938Z 29007KT 12/M08 A3008 RMK A01 T01201083  RH  023%=      5-min Rain = 0
KSB1 230939Z 29007KT 12/M08 A3008 RMK A01 T01211082  RH  023%=      5-min Rain = 0
KSB1 230940Z 30007KT 12/M08 A3008 RMK A01 T01201082  RH  024%=      5-min Rain = 0
KSB1 230941Z 30006KT 12/M08 A3008 RMK A01 T01191082  RH  024%=      5-min Rain = 0
KSB1 230942Z 29006KT 12/M08 A3008 RMK A01 T01171081  RH  024%=      5-min Rain = 0
KSB1 230943Z 29006KT 12/M08 A3008 RMK A01 T01171082  RH  024%=      5-min Rain = 0
KSB1 230944Z 30007KT 12/M08 A3008 RMK A01 T01171082  RH  024%=      5-min Rain = 0
KSB1 230945Z 30006KT 12/M08 A3008 RMK A01 T01161082  RH  024%=      5-min Rain = 0
KSB1 230946Z 31006KT 12/M08 A3008 RMK A01 T01151082  RH  024%=      5-min Rain = 0
KSB1 230947Z 31007KT 11/M08 A3008 RMK A01 T01141082  RH  024%=      5-min Rain = 0
KSB1 230948Z 30007KT 11/M08 A3008 RMK A01 T01141082  RH  024%=      5-min Rain = 0
KSB1 230949Z 30007KT 11/M08 A3008 RMK A01 T01141082  RH  025%=      5-min Rain = 0
KSB1 230950Z 30007KT 11/M08 A3008 RMK A01 T01141081  RH  025%=      5-min Rain = 0
KSB1 230951Z 30007KT 11/M08 A3008 RMK A01 T01131081  RH  025%=      5-min Rain = 0
KSB1 230952Z 30007KT 11/M08 A3008 RMK A01 T01131082  RH  025%=      5-min Rain = 0
KSB1 230953Z 30007KT 11/M08 A3008 RMK A01 T01131082  RH  025%=      5-min Rain = 0
KSB1 230954Z 30007KT 11/M08 A3008 RMK A01 T01141082  RH  024%=      5-min Rain = 0
KSB1 230955Z 30006KT 12/M08 A3008 RMK A01 T01151082  RH  024%=      5-min Rain = 0
KSB1 230956Z 30006KT 12/M08 A3008 RMK A01 T01161083  RH  024%=      5-min Rain = 0
KSB1 230957Z 30006KT 12/M08 A3008 RMK A01 T01161083  RH  024%=      5-min Rain = 0
KSB1 230958Z 30007KT 12/M08 A3008 RMK A01 T01161082  RH  024%=      5-min Rain = 0
KSB1 230959Z 29007KT 12/M08 A3008 RMK A01 T01161082  RH  024%=      5-min Rain = 0
KSB1 231000Z 29008KT 12/M08 A3008 RMK A01 T01161083  RH  024%=      5-min Rain = 0
KSB1 231001Z 30007KT 12/M08 A3008 RMK A01 T01161083  RH  024%=      5-min Rain = 0
KSB1 231002Z 29008KT 12/M08 A3008 RMK A01 T01161084  RH  024%=      5-min Rain = 0
KSB1 231003Z 29008KT 12/M08 A3008 RMK A01 T01181084  RH  024%=      5-min Rain = 0
KSB1 231004Z 29008KT 12/M08 A3008 RMK A01 T01191083  RH  023%=      5-min Rain = 0
KSB1 231005Z 29008KT 12/M08 A3008 RMK A01 T01191084  RH  023%=      5-min Rain = 0
KSB1 231006Z 30008KT 12/M08 A3008 RMK A01 T01201084  RH  023%=      5-min Rain = 0
KSB1 231007Z 30007KT 12/M08 A3008 RMK A01 T01201084  RH  023%=      5-min Rain = 0
KSB1 231008Z 30006KT 12/M08 A3008 RMK A01 T01201083  RH  023%=      5-min Rain = 0
KSB1 231009Z 30006KT 12/M08 A3008 RMK A01 T01191083  RH  023%=      5-min Rain = 0
KSB1 231010Z 30005KT 12/M08 A3008 RMK A01 T01181083  RH  024%=      5-min Rain = 0
KSB1 231011Z 30006KT 12/M08 A3008 RMK A01 T01171083  RH  024%=      5-min Rain = 0
KSB1 231012Z 29005KT 12/M08 A3008 RMK A01 T01161083  RH  024%=      5-min Rain = 0
KSB1 231013Z 30006KT 12/M08 A3008 RMK A01 T01151082  RH  024%=      5-min Rain = 0
KSB1 231014Z 30006KT 12/M08 A3008 RMK A01 T01151082  RH  024%=      5-min Rain = 0
KSB1 231015Z 29005KT 12/M08 A3008 RMK A01 T01151082  RH  024%=      5-min Rain = 0
KSB1 231016Z 30006KT 11/M08 A3008 RMK A01 T01141082  RH  024%=      5-min Rain = 0
KSB1 231017Z 30005KT 11/M08 A3008 RMK A01 T01141082  RH  025%=      5-min Rain = 0
KSB1 231018Z 29006KT 11/M08 A3008 RMK A01 T01131082  RH  025%=      5-min Rain = 0
KSB1 231019Z 31006KT 11/M08 A3008 RMK A01 T01131082  RH  025%=      5-min Rain = 0
KSB1 231020Z 31007KT 11/M08 A3008 RMK A01 T01131082  RH  025%=      5-min Rain = 0
KSB1 231021Z 30006KT 11/M08 A3008 RMK A01 T01121082  RH  025%=      5-min Rain = 0
KSB1 231022Z 30008KT 11/M08 A3008 RMK A01 T01131082  RH  025%=      5-min Rain = 0
KSB1 231023Z 30008KT 11/M08 A3008 RMK A01 T01131081  RH  025%=      5-min Rain = 0
KSB1 231024Z 30007KT 11/M08 A3008 RMK A01 T01131082  RH  025%=      5-min Rain = 0
KSB1 231025Z 30006KT 11/M08 A3008 RMK A01 T01131082  RH  025%=      5-min Rain = 0
KSB1 231026Z 29007KT 11/M08 A3008 RMK A01 T01131082  RH  025%=      5-min Rain = 0
KSB1 231027Z 29008KT 11/M08 A3008 RMK A01 T01131082  RH  025%=      5-min Rain = 0
KSB1 231028Z 30007KT 11/M08 A3008 RMK A01 T01141082  RH  025%=      5-min Rain = 0
KSB1 231029Z 29007KT 11/M08 A3008 RMK A01 T01131082  RH  025%=      5-min Rain = 0
KSB1 231030Z 29007KT 11/M08 A3008 RMK A01 T01131081  RH  025%=      5-min Rain = 0
KSB1 231031Z 30009KT 11/M08 A3008 RMK A01 T01131082  RH  025%=      5-min Rain = 0
KSB1 231032Z 30009KT 11/M08 A3008 RMK A01 T01141082  RH  024%=      5-min Rain = 0
KSB1 231033Z 30007KT 12/M08 A3008 RMK A01 T01151082  RH  024%=      5-min Rain = 0
KSB1 231034Z 30006KT 12/M08 A3008 RMK A01 T01151082  RH  024%=      5-min Rain = 0
KSB1 231035Z 30007KT 11/M08 A3008 RMK A01 T01141081  RH  025%=      5-min Rain = 0
KSB1 231036Z 30007KT 11/M08 A3008 RMK A01 T01131080  RH  025%=      5-min Rain = 0
KSB1 231037Z 31006KT 11/M08 A3008 RMK A01 T01121080  RH  025%=      5-min Rain = 0
KSB1 231038Z 31006KT 11/M08 A3009 RMK A01 T01121080  RH  025%=      5-min Rain = 0
KSB1 231039Z 31006KT 11/M08 A3009 RMK A01 T01121079  RH  025%=      5-min Rain = 0
KSB1 231040Z 32005KT 11/M08 A3009 RMK A01 T01111079  RH  026%=      5-min Rain = 0
KSB1 231041Z 32003KT 10/M08 A3009 RMK A01 T01041078  RH  027%=      5-min Rain = 0
KSB1 231042Z 32001KT 10/M08 A3009 RMK A01 T01001078  RH  028%=      5-min Rain = 0
KSB1 231043Z 05001KT 10/M08 A3009 RMK A01 T00961077  RH  029%=      5-min Rain = 0
KSB1 231044Z 08001KT 09/M08 A3009 RMK A01 T00921077  RH  029%=      5-min Rain = 0
KSB1 231045Z 10002KT 09/M08 A3009 RMK A01 T00881076  RH  031%=      5-min Rain = 0
KSB1 231046Z 14001KT 09/M08 A3009 RMK A01 T00861077  RH  031%=      5-min Rain = 0
KSB1 231047Z 14001KT 09/M08 A3009 RMK A01 T00871079  RH  030%=      5-min Rain = 0
KSB1 231048Z 06002KT 09/M08 A3009 RMK A01 T00891078  RH  030%=      5-min Rain = 0
KSB1 231049Z 36001KT 09/M08 A3009 RMK A01 T00901078  RH  030%=      5-min Rain = 0
KSB1 231050Z 34002KT 09/M08 A3009 RMK A01 T00911080  RH  029%=      5-min Rain = 0
KSB1 231051Z 30003KT 09/M08 A3009 RMK A01 T00931080  RH  029%=      5-min Rain = 0
KSB1 231052Z 01002KT 10/M08 A3009 RMK A01 T00961079  RH  028%=      5-min Rain = 0
KSB1 231053Z 01001KT 10/M08 A3009 RMK A01 T00961078  RH  028%=      5-min Rain = 0
KSB1 231054Z 32002KT 10/M08 A3009 RMK A01 T00951078  RH  029%=      5-min Rain = 0
KSB1 231055Z 30005KT 10/M08 A3009 RMK A01 T00951079  RH  028%=      5-min Rain = 0
KSB1 231056Z 31004KT 10/M08 A3009 RMK A01 T00961078  RH  028%=      5-min Rain = 0
KSB1 231057Z 31005KT 10/M08 A3009 RMK A01 T00991078  RH  028%=      5-min Rain = 0
KSB1 231058Z 31005KT 10/M08 A3009 RMK A01 T01001078  RH  028%=      5-min Rain = 0
KSB1 231059Z 31006KT 10/M08 A3009 RMK A01 T01011078  RH  028%=      5-min Rain = 0
KSB1 231100Z 31005KT 10/M08 A3009 RMK A01 T01021078  RH  027%=      5-min Rain = 0
KSB1 231101Z 32003KT 10/M08 A3009 RMK A01 T01021078  RH  027%=      5-min Rain = 0
KSB1 231102Z 31004KT 10/M08 A3009 RMK A01 T01011077  RH  028%=      5-min Rain = 0
KSB1 231103Z 31004KT 10/M08 A3009 RMK A01 T01001077  RH  028%=      5-min Rain = 0
KSB1 231104Z 30004KT 10/M08 A3009 RMK A01 T01001078  RH  028%=      5-min Rain = 0
KSB1 231105Z 30003KT 10/M08 A3009 RMK A01 T00991078  RH  028%=      5-min Rain = 0
KSB1 231106Z 29003KT 10/M08 A3009 RMK A01 T00991078  RH  028%=      5-min Rain = 0
KSB1 231107Z 29005KT 10/M08 A3009 RMK A01 T00991077  RH  028%=      5-min Rain = 0
KSB1 231108Z 30003KT 10/M08 A3009 RMK A01 T01001077  RH  028%=      5-min Rain = 0
KSB1 231109Z 29003KT 10/M08 A3009 RMK A01 T01011077  RH  028%=      5-min Rain = 0
KSB1 231110Z 28003KT 10/M08 A3009 RMK A01 T01021078  RH  027%=      5-min Rain = 0
KSB1 231111Z 26002KT 10/M08 A3009 RMK A01 T01001078  RH  028%=      5-min Rain = 0
KSB1 231112Z 15001KT 10/M08 A3009 RMK A01 T00971078  RH  028%=      5-min Rain = 0
KSB1 231113Z 11002KT 09/M08 A301 RMK A01 T00941079  RH  029%=      5-min Rain = 0
KSB1 231114Z 13002KT 09/M08 A301 RMK A01 T00921079  RH  029%=      5-min Rain = 0
KSB1 231115Z 11001KT 09/M08 A301 RMK A01 T00891079  RH  030%=      5-min Rain = 0
KSB1 231116Z 11001KT 09/M08 A301 RMK A01 T00881077  RH  030%=      5-min Rain = 0
KSB1 231117Z 12001KT 09/M08 A301 RMK A01 T00861077  RH  031%=      5-min Rain = 0
KSB1 231118Z 09002KT 09/M08 A301 RMK A01 T00851077  RH  031%=      5-min Rain = 0
KSB1 231119Z 09002KT 08/M08 A301 RMK A01 T00831076  RH  031%=      5-min Rain = 0
KSB1 231120Z 08001KT 08/M08 A301 RMK A01 T00821075  RH  032%=      5-min Rain = 0
KSB1 231121Z 04000KT 08/M07 A301 RMK A01 T00801074  RH  033%=      5-min Rain = 0
KSB1 231122Z 00001KT 08/M07 A301 RMK A01 T00781074  RH  033%=      5-min Rain = 0
KSB1 231123Z 33000KT 08/M08 A301 RMK A01 T00771075  RH  033%=      5-min Rain = 0
KSB1 231124Z 28001KT 08/M07 A301 RMK A01 T00761074  RH  034%=      5-min Rain = 0
KSB1 231125Z 29001KT 08/M07 A301 RMK A01 T00751074  RH  034%=      5-min Rain = 0
KSB1 231126Z 26002KT 07/M07 A301 RMK A01 T00741073  RH  034%=      5-min Rain = 0
KSB1 231127Z 28003KT 07/M07 A301 RMK A01 T00731074  RH  034%=      5-min Rain = 0
KSB1 231128Z 28002KT 07/M08 A301 RMK A01 T00741075  RH  034%=      5-min Rain = 0
KSB1 231129Z 29002KT 07/M07 A301 RMK A01 T00741074  RH  034%=      5-min Rain = 0
KSB1 231130Z 28001KT 08/M07 A301 RMK A01 T00751074  RH  034%=      5-min Rain = 0
KSB1 231131Z 28001KT 08/M07 A301 RMK A01 T00751074  RH  034%=      5-min Rain = 0
KSB1 231132Z 29003KT 08/M08 A301 RMK A01 T00761076  RH  033%=      5-min Rain = 0
KSB1 231133Z 30004KT 08/M08 A301 RMK A01 T00781075  RH  033%=      5-min Rain = 0
KSB1 231134Z 31004KT 08/M07 A301 RMK A01 T00801074  RH  033%=      5-min Rain = 0
KSB1 231135Z 31005KT 08/M07 A301 RMK A01 T00821074  RH  032%=      5-min Rain = 0
KSB1 231136Z 30006KT 09/M07 A301 RMK A01 T00871073  RH  031%=      5-min Rain = 0
KSB1 231137Z 29005KT 10/M07 A301 RMK A01 T00951073  RH  030%=      5-min Rain = 0
KSB1 231138Z 27003KT 10/M07 A301 RMK A01 T00981073  RH  029%=      5-min Rain = 0
KSB1 231139Z 26002KT 10/M07 A301 RMK A01 T00971073  RH  029%=      5-min Rain = 0
KSB1 231140Z 20001KT 09/M08 A301 RMK A01 T00941075  RH  029%=      5-min Rain = 0
KSB1 231141Z 16002KT 09/M08 A301 RMK A01 T00921076  RH  030%=      5-min Rain = 0
KSB1 231142Z 15001KT 09/M07 A301 RMK A01 T00891074  RH  031%=      5-min Rain = 0
KSB1 231143Z 15001KT 09/M08 A301 RMK A01 T00881075  RH  031%=      5-min Rain = 0
KSB1 231144Z 14002KT 09/M08 A301 RMK A01 T00871076  RH  031%=      5-min Rain = 0
KSB1 231145Z 13002KT 09/M08 A301 RMK A01 T00861075  RH  031%=      5-min Rain = 0
KSB1 231146Z 13002KT 08/M07 A301 RMK A01 T00841074  RH  032%=      5-min Rain = 0
KSB1 231147Z 10001KT 08/M07 A3011 RMK A01 T00821073  RH  033%=      5-min Rain = 0
KSB1 231148Z 07001KT 08/M07 A3011 RMK A01 T00791072  RH  033%=      5-min Rain = 0
KSB1 231149Z 11000KT 08/M07 A3011 RMK A01 T00781074  RH  033%=      5-min Rain = 0
KSB1 231150Z 07000KT 08/M07 A3011 RMK A01 T00761073  RH  034%=      5-min Rain = 0
KSB1 231151Z 04001KT 07/M07 A3011 RMK A01 T00731074  RH  034%=      5-min Rain = 0
KSB1 231152Z 09001KT 07/M07 A3011 RMK A01 T00731074  RH  034%=      5-min Rain = 0
KSB1 231153Z 08002KT 07/M07 A3011 RMK A01 T00721074  RH  034%=      5-min Rain = 0
KSB1 231154Z 11001KT 07/M08 A3011 RMK A01 T00721075  RH  034%=      5-min Rain = 0
KSB1 231155Z 11001KT 07/M08 A3011 RMK A01 T00721075  RH  034%=      5-min Rain = 0
KSB1 231156Z 06001KT 07/M08 A3011 RMK A01 T00741075  RH  034%=      5-min Rain = 0
KSB1 231157Z 05000KT 08/M08 A3011 RMK A01 T00751076  RH  034%=      5-min Rain = 0
KSB1 231158Z 12000KT 08/M08 A3011 RMK A01 T00751076  RH  033%=      5-min Rain = 0
KSB1 231159Z 11001KT 08/M08 A3011 RMK A01 T00771075  RH  033%=      5-min Rain = 0
KSB1 231200Z 10001KT 08/M08 A3011 RMK A01 T00791075  RH  033%=      5-min Rain = 0
KSB1 231201Z 11002KT 08/M08 A3011 RMK A01 T00801075  RH  033%=      5-min Rain = 0
KSB1 231202Z 12002KT 08/M08 A3011 RMK A01 T00811075  RH  032%=      5-min Rain = 0
KSB1 231203Z 13003KT 08/M08 A3011 RMK A01 T00811076  RH  032%=      5-min Rain = 0
KSB1 231204Z 11003KT 08/M08 A3011 RMK A01 T00831075  RH  032%=      5-min Rain = 0
KSB1 231205Z 13002KT 08/M07 A3011 RMK A01 T00831074  RH  032%=      5-min Rain = 0
KSB1 231206Z 12003KT 08/M07 A3011 RMK A01 T00831073  RH  032%=      5-min Rain = 0
KSB1 231207Z 10003KT 08/M07 A3011 RMK A01 T00821074  RH  032%=      5-min Rain = 0
KSB1 231208Z 11002KT 08/M07 A3011 RMK A01 T00821074  RH  032%=      5-min Rain = 0
KSB1 231209Z 10002KT 08/M07 A3011 RMK A01 T00821074  RH  032%=      5-min Rain = 0
KSB1 231210Z 10002KT 08/M08 A3011 RMK A01 T00831075  RH  032%=      5-min Rain = 0
KSB1 231211Z 10003KT 09/M08 A3011 RMK A01 T00861075  RH  031%=      5-min Rain = 0
KSB1 231212Z 06001KT 09/M07 A3011 RMK A01 T00861072  RH  032%=      5-min Rain = 0
KSB1 231213Z 10001KT 08/M07 A3011 RMK A01 T00841074  RH  032%=      5-min Rain = 0
KSB1 231214Z 09002KT 08/M08 A3011 RMK A01 T00831075  RH  032%=      5-min Rain = 0
KSB1 231215Z 06002KT 08/M07 A3011 RMK A01 T00821074  RH  032%=      5-min Rain = 0
KSB1 231216Z 08001KT 08/M07 A3011 RMK A01 T00801073  RH  033%=      5-min Rain = 0
KSB1 231217Z 06002KT 08/M07 A3011 RMK A01 T00801074  RH  033%=      5-min Rain = 0
KSB1 231218Z 08001KT 08/M08 A3011 RMK A01 T00801075  RH  033%=      5-min Rain = 0
KSB1 231219Z 08002KT 08/M08 A3011 RMK A01 T00811076  RH  032%=      5-min Rain = 0
KSB1 231220Z 08002KT 08/M08 A3011 RMK A01 T00831076  RH  032%=      5-min Rain = 0
KSB1 231221Z 07001KT 08/M08 A3011 RMK A01 T00831075  RH  032%=      5-min Rain = 0
KSB1 231222Z 00001KT 08/M08 A3011 RMK A01 T00841076  RH  032%=      5-min Rain = 0
KSB1 231223Z 01001KT 09/M08 A3011 RMK A01 T00851076  RH  031%=      5-min Rain = 0
KSB1 231224Z 08001KT 09/M08 A3011 RMK A01 T00871075  RH  031%=      5-min Rain = 0
KSB1 231225Z 09001KT 09/M07 A3011 RMK A01 T00881074  RH  031%=      5-min Rain = 0
KSB1 231226Z 23000KT 09/M07 A3011 RMK A01 T00891074  RH  031%=      5-min Rain = 0
KSB1 231227Z 10001KT 09/M07 A3011 RMK A01 T00891072  RH  031%=      5-min Rain = 0
KSB1 231228Z 15001KT 09/M07 A3011 RMK A01 T00871073  RH  031%=      5-min Rain = 0
KSB1 231229Z 21002KT 08/M07 A3011 RMK A01 T00841072  RH  032%=      5-min Rain = 0
KSB1 231230Z 19001KT 08/M07 A3011 RMK A01 T00801073  RH  033%=      5-min Rain = 0
KSB1 231231Z 17001KT 08/M07 A3011 RMK A01 T00791073  RH  033%=      5-min Rain = 0
KSB1 231232Z 20001KT 08/M07 A3011 RMK A01 T00771074  RH  033%=      5-min Rain = 0
KSB1 231233Z 19001KT 08/M07 A3011 RMK A01 T00761074  RH  034%=      5-min Rain = 0
KSB1 231234Z 16001KT 07/M08 A3011 RMK A01 T00731075  RH  034%=      5-min Rain = 0
KSB1 231235Z 21001KT 07/M08 A3011 RMK A01 T00711075  RH  035%=      5-min Rain = 0
KSB1 231236Z 22002KT 07/M08 A3011 RMK A01 T00671076  RH  035%=      5-min Rain = 0
KSB1 231237Z 24003KT 06/M08 A3011 RMK A01 T00641075  RH  036%=      5-min Rain = 0
KSB1 231238Z 26002KT 06/M08 A3011 RMK A01 T00601075  RH  037%=      5-min Rain = 0
KSB1 231239Z 27003KT 06/M07 A3011 RMK A01 T00581074  RH  038%=      5-min Rain = 0
KSB1 231240Z 28002KT 06/M07 A3011 RMK A01 T00581074  RH  038%=      5-min Rain = 0
KSB1 231241Z 29002KT 06/M07 A3012 RMK A01 T00581074  RH  038%=      5-min Rain = 0
KSB1 231242Z 32002KT 06/M07 A3012 RMK A01 T00591073  RH  038%=      5-min Rain = 0
KSB1 231243Z 31004KT 06/M07 A3012 RMK A01 T00611072  RH  038%=      5-min Rain = 0
KSB1 231244Z 26002KT 06/M07 A3012 RMK A01 T00611073  RH  038%=      5-min Rain = 0
KSB1 231245Z 26002KT 06/M07 A3012 RMK A01 T00581073  RH  038%=      5-min Rain = 0
KSB1 231246Z 27002KT 06/M07 A3012 RMK A01 T00581072  RH  039%=      5-min Rain = 0
KSB1 231247Z 33001KT 06/M07 A3012 RMK A01 T00571073  RH  039%=      5-min Rain = 0
KSB1 231248Z 33001KT 06/M07 A3012 RMK A01 T00571073  RH  038%=      5-min Rain = 0
KSB1 231249Z 01001KT 06/M07 A3012 RMK A01 T00571073  RH  039%=      5-min Rain = 0
KSB1 231250Z 05000KT 06/M07 A3012 RMK A01 T00581070  RH  039%=      5-min Rain = 0
KSB1 231251Z 00000KT 06/M07 A3012 RMK A01 T00581067  RH  040%=      5-min Rain = 0
KSB1 231252Z 07001KT 06/M07 A3012 RMK A01 T00581067  RH  040%=      5-min Rain = 0
KSB1 231253Z 09001KT 06/M07 A3012 RMK A01 T00591069  RH  039%=      5-min Rain = 0
KSB1 231254Z 13001KT 06/M07 A3012 RMK A01 T00611069  RH  039%=      5-min Rain = 0
KSB1 231255Z 23001KT 06/M07 A3012 RMK A01 T00621069  RH  038%=      5-min Rain = 0
KSB1 231256Z 16001KT 06/M07 A3012 RMK A01 T00641069  RH  038%=      5-min Rain = 0
KSB1 231257Z 16001KT 07/M07 A3012 RMK A01 T00651070  RH  038%=      5-min Rain = 0
KSB1 231258Z 22001KT 07/M07 A3012 RMK A01 T00671068  RH  037%=      5-min Rain = 0
KSB1 231259Z 22001KT 07/M07 A3012 RMK A01 T00671070  RH  037%=      5-min Rain = 0
KSB1 231300Z 13000KT 07/M07 A3012 RMK A01 T00661068  RH  038%=      5-min Rain = 0
KSB1 231301Z 10000KT 07/M07 A3012 RMK A01 T00661068  RH  038%=      5-min Rain = 0
KSB1 231302Z 12001KT 07/M07 A3012 RMK A01 T00651068  RH  038%=      5-min Rain = 0
KSB1 231303Z 19001KT 06/M07 A3012 RMK A01 T00631067  RH  039%=      5-min Rain = 0
KSB1 231304Z 20002KT 06/M07 A3012 RMK A01 T00621067  RH  039%=      5-min Rain = 0
KSB1 231305Z 17002KT 06/M07 A3012 RMK A01 T00621068  RH  039%=      5-min Rain = 0
KSB1 231306Z 21002KT 06/M07 A3012 RMK A01 T00611068  RH  039%=      5-min Rain = 0
KSB1 231307Z 20002KT 06/M07 A3013 RMK A01 T00611069  RH  039%=      5-min Rain = 0
KSB1 231308Z 21004KT 06/M07 A3013 RMK A01 T00611068  RH  039%=      5-min Rain = 0
KSB1 231309Z 23004KT 06/M07 A3013 RMK A01 T00601068  RH  039%=      5-min Rain = 0
KSB1 231310Z 24004KT 06/M07 A3013 RMK A01 T00591069  RH  039%=      5-min Rain = 0
KSB1 231311Z 25004KT 06/M07 A3013 RMK A01 T00591069  RH  040%=      5-min Rain = 0
KSB1 231312Z 25004KT 06/M07 A3013 RMK A01 T00591068  RH  039%=      5-min Rain = 0
KSB1 231313Z 24003KT 06/M07 A3013 RMK A01 T00611068  RH  039%=      5-min Rain = 0
KSB1 231314Z 24004KT 06/M07 A3013 RMK A01 T00631069  RH  038%=      5-min Rain = 0
KSB1 231315Z 25004KT 07/M07 A3013 RMK A01 T00661069  RH  037%=      5-min Rain = 0
KSB1 231316Z 25005KT 07/M07 A3013 RMK A01 T00671069  RH  037%=      5-min Rain = 0
KSB1 231317Z 25004KT 07/M07 A3013 RMK A01 T00691069  RH  037%=      5-min Rain = 0
KSB1 231318Z 25004KT 07/M07 A3013 RMK A01 T00731070  RH  035%=      5-min Rain = 0
KSB1 231319Z 24004KT 08/M07 A3013 RMK A01 T00761071  RH  034%=      5-min Rain = 0
KSB1 231320Z 25005KT 08/M07 A3013 RMK A01 T00791071  RH  034%=      5-min Rain = 0
KSB1 231321Z 25004KT 08/M07 A3013 RMK A01 T00801071  RH  034%=      5-min Rain = 0
KSB1 231322Z 25004KT 08/M07 A3013 RMK A01 T00811070  RH  034%=      5-min Rain = 0
KSB1 231323Z 25003KT 08/M07 A3013 RMK A01 T00801071  RH  034%=      5-min Rain = 0
KSB1 231324Z 25004KT 08/M07 A3013 RMK A01 T00811071  RH  033%=      5-min Rain = 0
KSB1 231325Z 25004KT 08/M07 A3013 RMK A01 T00811071  RH  033%=      5-min Rain = 0
KSB1 231326Z 26004KT 08/M07 A3013 RMK A01 T00811071  RH  033%=      5-min Rain = 0
KSB1 231327Z 26003KT 08/M07 A3013 RMK A01 T00811071  RH  033%=      5-min Rain = 0
KSB1 231328Z 26003KT 08/M07 A3013 RMK A01 T00811070  RH  034%=      5-min Rain = 0
KSB1 231329Z 28003KT 08/M07 A3013 RMK A01 T00811070  RH  034%=      5-min Rain = 0
KSB1 231330Z 28002KT 08/M07 A3013 RMK A01 T00811070  RH  034%=      5-min Rain = 0
KSB1 231331Z 29002KT 08/M07 A3013 RMK A01 T00811070  RH  034%=      5-min Rain = 0
KSB1 231332Z 27001KT 08/M07 A3013 RMK A01 T00821069  RH  033%=      5-min Rain = 0
KSB1 231333Z 29001KT 08/M07 A3013 RMK A01 T00831067  RH  034%=      5-min Rain = 0
KSB1 231334Z 26001KT 08/M07 A3014 RMK A01 T00831067  RH  034%=      5-min Rain = 0
KSB1 231335Z 24002KT 08/M07 A3014 RMK A01 T00841067  RH  034%=      5-min Rain = 0
KSB1 231336Z 24002KT 08/M07 A3014 RMK A01 T00841068  RH  033%=      5-min Rain = 0
KSB1 231337Z 26001KT 09/M07 A3014 RMK A01 T00851068  RH  033%=      5-min Rain = 0
KSB1 231338Z 27001KT 09/M07 A3014 RMK A01 T00871067  RH  033%=      5-min Rain = 0
KSB1 231339Z 26001KT 09/M07 A3014 RMK A01 T00881067  RH  033%=      5-min Rain = 0
KSB1 231340Z 35000KT 09/M07 A3014 RMK A01 T00901067  RH  032%=      5-min Rain = 0
KSB1 231341Z 00000KT 09/M07 A3014 RMK A01 T00911067  RH  032%=      5-min Rain = 0
KSB1 231342Z 32000KT 09/M07 A3014 RMK A01 T00931067  RH  032%=      5-min Rain = 0
KSB1 231343Z 29000KT 09/M07 A3014 RMK A01 T00941068  RH  031%=      5-min Rain = 0
KSB1 231344Z 00000KT 10/M07 A3014 RMK A01 T00961066  RH  031%=      5-min Rain = 0
KSB1 231345Z 14000KT 10/M06 A3014 RMK A01 T00961060  RH  033%=      5-min Rain = 0
KSB1 231346Z 06001KT 10/M06 A3014 RMK A01 T00961059  RH  033%=      5-min Rain = 0
KSB1 231347Z 05001KT 09/M06 A3014 RMK A01 T00941059  RH  033%=      5-min Rain = 0
KSB1 231348Z 09001KT 09/M06 A3014 RMK A01 T00931061  RH  033%=      5-min Rain = 0
KSB1 231349Z 17001KT 09/M06 A3014 RMK A01 T00921061  RH  033%=      5-min Rain = 0
KSB1 231350Z 17001KT 09/M06 A3014 RMK A01 T00921061  RH  033%=      5-min Rain = 0
KSB1 231351Z 20001KT 09/M06 A3014 RMK A01 T00941062  RH  033%=      5-min Rain = 0
KSB1 231352Z 16001KT 10/M06 A3014 RMK A01 T00971062  RH  032%=      5-min Rain = 0
KSB1 231353Z 10001KT 10/M06 A3014 RMK A01 T00981058  RH  033%=      5-min Rain = 0
KSB1 231354Z 04001KT 10/M06 A3014 RMK A01 T00981059  RH  033%=      5-min Rain = 0
KSB1 231355Z 06001KT 10/M06 A3014 RMK A01 T00951060  RH  033%=      5-min Rain = 0
KSB1 231356Z 05002KT 09/M06 A3014 RMK A01 T00931061  RH  033%=      5-min Rain = 0
KSB1 231357Z 05002KT 09/M06 A3014 RMK A01 T00931061  RH  033%=      5-min Rain = 0
KSB1 231358Z 06002KT 09/M06 A3014 RMK A01 T00931064  RH  032%=      5-min Rain = 0
KSB1 231359Z 10002KT 09/M07 A3014 RMK A01 T00941065  RH  032%=      5-min Rain = 0
KSB1 231400Z 11001KT 10/M07 A3015 RMK A01 T00961065  RH  031%=      5-min Rain = 0
KSB1 231401Z 12001KT 10/M06 A3015 RMK A01 T00981063  RH  032%=      5-min Rain = 0
KSB1 231402Z 09001KT 10/M06 A3015 RMK A01 T00991060  RH  032%=      5-min Rain = 0
KSB1 231403Z 06001KT 10/M06 A3015 RMK A01 T01011064  RH  031%=      5-min Rain = 0
KSB1 231404Z 11002KT 10/M07 A3015 RMK A01 T01021066  RH  030%=      5-min Rain = 0
KSB1 231405Z 12002KT 10/M07 A3015 RMK A01 T01021067  RH  030%=      5-min Rain = 0
KSB1 231406Z 12001KT 10/M07 A3015 RMK A01 T01011066  RH  030%=      5-min Rain = 0
KSB1 231407Z 12001KT 10/M07 A3015 RMK A01 T01011065  RH  030%=      5-min Rain = 0
KSB1 231408Z 12001KT 10/M06 A3015 RMK A01 T01021063  RH  031%=      5-min Rain = 0
KSB1 231409Z 12001KT 10/M06 A3015 RMK A01 T01041061  RH  031%=      5-min Rain = 0
KSB1 231410Z 26001KT 11/M06 A3015 RMK A01 T01051061  RH  030%=      5-min Rain = 0
KSB1 231411Z 27002G7KT 11/M07 A3015 RMK A01 T01061065  RH  029%=      5-min Rain = 0
KSB1 231412Z 28006KT 11/M07 A3015 RMK A01 T01081066  RH  029%=      5-min Rain = 0
KSB1 231413Z 30008KT 11/M07 A3015 RMK A01 T01091067  RH  028%=      5-min Rain = 0
KSB1 231414Z 31004KT 11/M07 A3015 RMK A01 T01101067  RH  028%=      5-min Rain = 0
KSB1 231415Z 29005KT 11/M07 A3015 RMK A01 T01111066  RH  028%=      5-min Rain = 0
KSB1 231416Z 29006KT 11/M07 A3015 RMK A01 T01111067  RH  028%=      5-min Rain = 0
KSB1 231417Z 29004KT 11/M07 A3015 RMK A01 T01111065  RH  028%=      5-min Rain = 0
KSB1 231418Z 29005KT 11/M06 A3015 RMK A01 T01111064  RH  029%=      5-min Rain = 0
KSB1 231419Z 28006KT 11/M06 A3015 RMK A01 T01111064  RH  029%=      5-min Rain = 0
KSB1 231420Z 28006KT 11/M07 A3015 RMK A01 T01111065  RH  028%=      5-min Rain = 0
KSB1 231421Z 29008KT 11/M06 A3015 RMK A01 T01111064  RH  029%=      5-min Rain = 0
KSB1 231422Z 28007KT 11/M07 A3015 RMK A01 T01111065  RH  029%=      5-min Rain = 0
KSB1 231423Z 28006KT 11/M07 A3015 RMK A01 T01111065  RH  029%=      5-min Rain = 0
KSB1 231424Z 28007KT 11/M07 A3015 RMK A01 T01111065  RH  029%=      5-min Rain = 0
KSB1 231425Z 29007KT 11/M06 A3015 RMK A01 T01111064  RH  029%=      5-min Rain = 0
KSB1 231426Z 29007KT 11/M07 A3015 RMK A01 T01121065  RH  028%=      5-min Rain = 0
KSB1 231427Z 29007KT 11/M07 A3015 RMK A01 T01131066  RH  028%=      5-min Rain = 0
KSB1 231428Z 29008KT 11/M07 A3015 RMK A01 T01141065  RH  028%=      5-min Rain = 0
KSB1 231429Z 29008KT 12/M07 A3015 RMK A01 T01151067  RH  027%=      5-min Rain = 0
KSB1 231430Z 29008KT 12/M07 A3015 RMK A01 T01161067  RH  027%=      5-min Rain = 0
KSB1 231431Z 29009KT 12/M07 A3015 RMK A01 T01161068  RH  027%=      5-min Rain = 0
KSB1 231432Z 29009KT 12/M07 A3015 RMK A01 T01171068  RH  027%=      5-min Rain = 0
KSB1 231433Z 29009KT 12/M07 A3015 RMK A01 T01181068  RH  027%=      5-min Rain = 0
KSB1 231434Z 29009KT 12/M07 A3015 RMK A01 T01181069  RH  026%=      5-min Rain = 0
KSB1 231435Z 29009KT 12/M07 A3015 RMK A01 T01191068  RH  027%=      5-min Rain = 0
KSB1 231436Z 29009KT 12/M07 A3015 RMK A01 T01191069  RH  026%=      5-min Rain = 0
KSB1 231437Z 28008KT 12/M07 A3016 RMK A01 T01191069  RH  026%=      5-min Rain = 0
KSB1 231438Z 28008KT 12/M07 A3016 RMK A01 T01201067  RH  026%=      5-min Rain = 0
KSB1 231439Z 28009KT 12/M07 A3016 RMK A01 T01201067  RH  026%=      5-min Rain = 0
KSB1 231440Z 28009KT 12/M07 A3016 RMK A01 T01211067  RH  026%=      5-min Rain = 0
KSB1 231441Z 28008KT 12/M07 A3016 RMK A01 T01211067  RH  026%=      5-min Rain = 0
KSB1 231442Z 28010KT 12/M07 A3016 RMK A01 T01211067  RH  026%=      5-min Rain = 0
KSB1 231443Z 28011KT 12/M07 A3016 RMK A01 T01211066  RH  026%=      5-min Rain = 0
KSB1 231444Z 28010KT 12/M07 A3016 RMK A01 T01211066  RH  026%=      5-min Rain = 0
KSB1 231445Z 28010KT 12/M07 A3016 RMK A01 T01221065  RH  026%=      5-min Rain = 0
KSB1 231446Z 28009KT 12/M07 A3016 RMK A01 T01221067  RH  026%=      5-min Rain = 0
KSB1 231447Z 29008KT 12/M07 A3016 RMK A01 T01231065  RH  026%=      5-min Rain = 0
KSB1 231448Z 29010KT 12/M07 A3016 RMK A01 T01241065  RH  026%=      5-min Rain = 0
KSB1 231449Z 28011KT 13/M07 A3016 RMK A01 T01251066  RH  026%=      5-min Rain = 0
KSB1 231450Z 28011KT 12/M07 A3017 RMK A01 T01241067  RH  026%=      5-min Rain = 0
KSB1 231451Z 28010KT 12/M07 A3017 RMK A01 T01241067  RH  026%=      5-min Rain = 0
KSB1 231452Z 28009KT 12/M07 A3017 RMK A01 T01241066  RH  026%=      5-min Rain = 0
KSB1 231453Z 28010KT 13/M07 A3017 RMK A01 T01251066  RH  026%=      5-min Rain = 0
KSB1 231454Z 28008KT 13/M07 A3017 RMK A01 T01251067  RH  026%=      5-min Rain = 0
KSB1 231455Z 28011KT 13/M07 A3017 RMK A01 T01251068  RH  025%=      5-min Rain = 0
KSB1 231456Z 28010KT 12/M07 A3017 RMK A01 T01241069  RH  025%=      5-min Rain = 0
KSB1 231457Z 28010KT 13/M07 A3017 RMK A01 T01251068  RH  025%=      5-min Rain = 0
KSB1 231458Z 28009KT 13/M07 A3017 RMK A01 T01261067  RH  025%=      5-min Rain = 0
KSB1 231459Z 28012KT 13/M07 A3017 RMK A01 T01271066  RH  025%=      5-min Rain = 0
KSB1 231500Z 29009KT 13/M07 A3017 RMK A01 T01271067  RH  025%=      5-min Rain = 0
KSB1 231501Z 28009KT 13/M07 A3017 RMK A01 T01281066  RH  025%=      5-min Rain = 0
KSB1 231502Z 28009KT 13/M07 A3017 RMK A01 T01291066  RH  025%=      5-min Rain = 0
KSB1 231503Z 28011KT 13/M07 A3017 RMK A01 T01291067  RH  025%=      5-min Rain = 0
KSB1 231504Z 28010KT 13/M07 A3017 RMK A01 T01291066  RH  025%=      5-min Rain = 0
KSB1 231505Z 28009KT 13/M07 A3017 RMK A01 T01291066  RH  025%=      5-min Rain = 0
KSB1 231506Z 28009KT 13/M07 A3017 RMK A01 T01291066  RH  025%=      5-min Rain = 0
KSB1 231507Z 28010KT 13/M07 A3017 RMK A01 T01291067  RH  025%=      5-min Rain = 0
KSB1 231508Z 28009KT 13/M07 A3017 RMK A01 T01291067  RH  025%=      5-min Rain = 0
KSB1 231509Z 28009KT 13/M07 A3017 RMK A01 T01291066  RH  025%=      5-min Rain = 0
KSB1 231510Z 28010KT 13/M07 A3017 RMK A01 T01301066  RH  025%=      5-min Rain = 0
KSB1 231511Z 29011KT 13/M07 A3017 RMK A01 T01301066  RH  025%=      5-min Rain = 0
KSB1 231512Z 28009KT 13/M07 A3017 RMK A01 T01301067  RH  025%=      5-min Rain = 0
KSB1 231513Z 29011KT 13/M07 A3017 RMK A01 T01301067  RH  025%=      5-min Rain = 0
KSB1 231514Z 28008KT 13/M07 A3017 RMK A01 T01301068  RH  025%=      5-min Rain = 0
KSB1 231515Z 28009KT 13/M07 A3017 RMK A01 T01301066  RH  025%=      5-min Rain = 0
KSB1 231516Z 28009KT 13/M07 A3017 RMK A01 T01311066  RH  025%=      5-min Rain = 0
KSB1 231517Z 28007KT 13/M07 A3017 RMK A01 T01321065  RH  025%=      5-min Rain = 0
KSB1 231518Z 29008KT 13/M06 A3017 RMK A01 T01331064  RH  025%=      5-min Rain = 0
KSB1 231519Z 28009KT 13/M07 A3017 RMK A01 T01341065  RH  025%=      5-min Rain = 0
KSB1 231520Z 29010KT 13/M07 A3017 RMK A01 T01331066  RH  024%=      5-min Rain = 0
KSB1 231521Z 29009KT 13/M07 A3017 RMK A01 T01331066  RH  025%=      5-min Rain = 0
KSB1 231522Z 29008KT 13/M07 A3017 RMK A01 T01331066  RH  024%=      5-min Rain = 0
KSB1 231523Z 29007KT 13/M07 A3017 RMK A01 T01331066  RH  024%=      5-min Rain = 0
KSB1 231524Z 29008KT 13/M06 A3017 RMK A01 T01341064  RH  025%=      5-min Rain = 0
KSB1 231525Z 29008KT 14/M06 A3017 RMK A01 T01351064  RH  025%=      5-min Rain = 0
KSB1 231526Z 29009KT 14/M07 A3017 RMK A01 T01351065  RH  024%=      5-min Rain = 0
KSB1 231527Z 29009KT 14/M07 A3017 RMK A01 T01351066  RH  024%=      5-min Rain = 0
KSB1 231528Z 28008KT 14/M07 A3017 RMK A01 T01351065  RH  024%=      5-min Rain = 0
KSB1 231529Z 27007KT 14/M07 A3017 RMK A01 T01361065  RH  024%=      5-min Rain = 0
KSB1 231530Z 28008KT 14/M07 A3017 RMK A01 T01371066  RH  024%=      5-min Rain = 0
KSB1 231531Z 29008KT 14/M07 A3017 RMK A01 T01381065  RH  024%=      5-min Rain = 0
KSB1 231532Z 28009KT 14/M07 A3017 RMK A01 T01381068  RH  023%=      5-min Rain = 0
KSB1 231533Z 28008KT 14/M07 A3017 RMK A01 T01371068  RH  023%=      5-min Rain = 0
KSB1 231534Z 28008KT 14/M07 A3017 RMK A01 T01371069  RH  023%=      5-min Rain = 0
KSB1 231535Z 28008KT 14/M07 A3017 RMK A01 T01381067  RH  024%=      5-min Rain = 0
KSB1 231536Z 29008KT 14/M07 A3017 RMK A01 T01381065  RH  024%=      5-min Rain = 0
KSB1 231537Z 28007KT 14/M07 A3017 RMK A01 T01381066  RH  024%=      5-min Rain = 0
KSB1 231538Z 29009KT 14/M07 A3017 RMK A01 T01391066  RH  023%=      5-min Rain = 0
KSB1 231539Z 28008KT 14/M07 A3017 RMK A01 T01391068  RH  023%=      5-min Rain = 0
KSB1 231540Z 27007KT 14/M07 A3017 RMK A01 T01391066  RH  023%=      5-min Rain = 0
KSB1 231541Z 28006KT 14/M07 A3017 RMK A01 T01411065  RH  023%=      5-min Rain = 0
KSB1 231542Z 28006KT 14/M07 A3017 RMK A01 T01411065  RH  023%=      5-min Rain = 0
KSB1 231543Z 29008KT 14/M07 A3017 RMK A01 T01421065  RH  023%=      5-min Rain = 0
KSB1 231544Z 29007KT 14/M07 A3017 RMK A01 T01421068  RH  023%=      5-min Rain = 0
KSB1 231545Z 28007KT 14/M07 A3017 RMK A01 T01421067  RH  023%=      5-min Rain = 0
KSB1 231546Z 29007KT 14/M07 A3017 RMK A01 T01421067  RH  023%=      5-min Rain = 0
KSB1 231547Z 28007KT 14/M07 A3017 RMK A01 T01431066  RH  023%=      5-min Rain = 0
KSB1 231548Z 29007KT 14/M07 A3017 RMK A01 T01441068  RH  022%=      5-min Rain = 0
KSB1 231549Z 29007KT 14/M07 A3017 RMK A01 T01431069  RH  022%=      5-min Rain = 0
KSB1 231550Z 28006KT 14/M07 A3017 RMK A01 T01441067  RH  023%=      5-min Rain = 0
KSB1 231551Z 29007KT 14/M07 A3017 RMK A01 T01441067  RH  023%=      5-min Rain = 0
KSB1 231552Z 29007KT 14/M07 A3017 RMK A01 T01441070  RH  022%=      5-min Rain = 0
KSB1 231553Z 29006KT 14/M07 A3017 RMK A01 T01441070  RH  022%=      5-min Rain = 0
KSB1 231554Z 30006KT 14/M07 A3017 RMK A01 T01441068  RH  023%=      5-min Rain = 0
KSB1 231555Z 28007KT 15/M07 A3017 RMK A01 T01451067  RH  022%=      5-min Rain = 0
KSB1 231556Z 27007KT 15/M07 A3017 RMK A01 T01461068  RH  022%=      5-min Rain = 0
KSB1 231557Z 28008KT 15/M07 A3017 RMK A01 T01471070  RH  022%=      5-min Rain = 0
KSB1 231558Z 29006KT 15/M07 A3017 RMK A01 T01471069  RH  022%=      5-min Rain = 0
KSB1 231559Z 27005KT 15/M07 A3017 RMK A01 T01461069  RH  022%=      5-min Rain = 0
KSB1 231600Z 26005KT 15/M07 A3017 RMK A01 T01461067  RH  022%=      5-min Rain = 0
KSB1 231601Z 28007KT 15/M07 A3017 RMK A01 T01481068  RH  022%=      5-min Rain = 0
KSB1 231602Z 27007KT 15/M07 A3017 RMK A01 T01491070  RH  021%=      5-min Rain = 0
KSB1 231603Z 26006KT 15/M07 A3017 RMK A01 T01471071  RH  021%=      5-min Rain = 0
KSB1 231604Z 27005KT 15/M07 A3017 RMK A01 T01471070  RH  022%=      5-min Rain = 0
KSB1 231605Z 29005KT 15/M07 A3017 RMK A01 T01471068  RH  022%=      5-min Rain = 0
KSB1 231606Z 28006KT 15/M07 A3017 RMK A01 T01491067  RH  022%=      5-min Rain = 0
KSB1 231607Z 28007KT 15/M07 A3017 RMK A01 T01521067  RH  021%=      5-min Rain = 0
KSB1 231608Z 29007KT 15/M07 A3017 RMK A01 T01531071  RH  021%=      5-min Rain = 0
KSB1 231609Z 29006KT 15/M07 A3016 RMK A01 T01521074  RH  020%=      5-min Rain = 0
KSB1 231610Z 30006KT 15/M07 A3016 RMK A01 T01501074  RH  021%=      5-min Rain = 0
KSB1 231611Z 30006KT 15/M07 A3016 RMK A01 T01501072  RH  021%=      5-min Rain = 0
KSB1 231612Z 29008KT 15/M07 A3017 RMK A01 T01511072  RH  021%=      5-min Rain = 0
KSB1 231613Z 30007KT 15/M07 A3016 RMK A01 T01521073  RH  021%=      5-min Rain = 0
KSB1 231614Z 29008KT 15/M07 A3016 RMK A01 T01531072  RH  020%=      5-min Rain = 0
KSB1 231615Z 28006KT 15/M07 A3017 RMK A01 T01531073  RH  020%=      5-min Rain = 0
KSB1 231616Z 27005KT 15/M08 A3017 RMK A01 T01531075  RH  020%=      5-min Rain = 0
KSB1 231617Z 30004KT 15/M08 A3016 RMK A01 T01521078  RH  020%=      5-min Rain = 0
KSB1 231618Z 28006KT 15/M08 A3016 RMK A01 T01521075  RH  020%=      5-min Rain = 0
KSB1 231619Z 31007KT 15/M08 A3016 RMK A01 T01521077  RH  020%=      5-min Rain = 0
KSB1 231620Z 29007KT 15/M07 A3016 RMK A01 T01541073  RH  020%=      5-min Rain = 0
KSB1 231621Z 30004KT 16/M07 A3016 RMK A01 T01551073  RH  020%=      5-min Rain = 0
KSB1 231622Z 31004KT 16/M08 A3016 RMK A01 T01551075  RH  020%=      5-min Rain = 0
KSB1 231623Z 30004KT 16/M07 A3016 RMK A01 T01561072  RH  020%=      5-min Rain = 0
KSB1 231624Z 29007KT 16/M07 A3016 RMK A01 T01571073  RH  020%=      5-min Rain = 0
KSB1 231625Z 30006KT 16/M08 A3016 RMK A01 T01581075  RH  019%=      5-min Rain = 0
KSB1 231626Z 31004KT 16/M08 A3016 RMK A01 T01561075  RH  020%=      5-min Rain = 0
KSB1 231627Z 32004KT 16/M08 A3016 RMK A01 T01551076  RH  020%=      5-min Rain = 0
KSB1 231628Z 31003KT 16/M08 A3016 RMK A01 T01551077  RH  019%=      5-min Rain = 0
KSB1 231629Z 35002KT 16/M08 A3016 RMK A01 T01551075  RH  020%=      5-min Rain = 0
KSB1 231630Z 33004KT 16/M07 A3016 RMK A01 T01571073  RH  020%=      5-min Rain = 0
KSB1 231631Z 29006KT 16/M07 A3016 RMK A01 T01601073  RH  020%=      5-min Rain = 0
KSB1 231632Z 30005KT 16/M08 A3016 RMK A01 T01601079  RH  019%=      5-min Rain = 0
KSB1 231633Z 30005KT 16/M08 A3016 RMK A01 T01581076  RH  019%=      5-min Rain = 0
KSB1 231634Z 29003KT 16/M08 A3016 RMK A01 T01591079  RH  019%=      5-min Rain = 0
KSB1 231635Z 31003KT 16/M08 A3016 RMK A01 T01601080  RH  018%=      5-min Rain = 0
KSB1 231636Z 31004KT 16/M08 A3016 RMK A01 T01611076  RH  019%=      5-min Rain = 0
KSB1 231637Z 33003KT 16/M07 A3016 RMK A01 T01641069  RH  020%=      5-min Rain = 0
KSB1 231638Z 27005KT 17/M07 A3016 RMK A01 T01671072  RH  019%=      5-min Rain = 0
KSB1 231639Z 27004KT 17/M08 A3016 RMK A01 T01661080  RH  018%=      5-min Rain = 0
KSB1 231640Z 30004KT 16/M08 A3016 RMK A01 T01641083  RH  018%=      5-min Rain = 0
KSB1 231641Z 29005KT 16/M08 A3016 RMK A01 T01631078  RH  018%=      5-min Rain = 0
KSB1 231642Z 28005KT 17/M08 A3016 RMK A01 T01661077  RH  018%=      5-min Rain = 0
KSB1 231643Z 27007KT 17/M09 A3017 RMK A01 T01671087  RH  017%=      5-min Rain = 0
KSB1 231644Z 27008KT 17/M09 A3017 RMK A01 T01681088  RH  017%=      5-min Rain = 0
KSB1 231645Z 27008KT 17/M09 A3017 RMK A01 T01681087  RH  017%=      5-min Rain = 0
KSB1 231646Z 28008KT 17/M09 A3017 RMK A01 T01681085  RH  017%=      5-min Rain = 0
KSB1 231647Z 28009KT 17/M09 A3017 RMK A01 T01691085  RH  017%=      5-min Rain = 0
KSB1 231648Z 28008KT 17/M08 A3017 RMK A01 T01691084  RH  017%=      5-min Rain = 0
KSB1 231649Z 28007KT 17/M09 A3017 RMK A01 T01681086  RH  017%=      5-min Rain = 0
KSB1 231650Z 28007KT 17/M09 A3017 RMK A01 T01661085  RH  017%=      5-min Rain = 0
KSB1 231651Z 27006KT 16/M09 A3017 RMK A01 T01641086  RH  017%=      5-min Rain = 0
KSB1 231652Z 27006KT 16/M08 A3017 RMK A01 T01641082  RH  018%=      5-min Rain = 0
KSB1 231653Z 29008KT 17/M08 A3017 RMK A01 T01671078  RH  018%=      5-min Rain = 0
KSB1 231654Z 28008KT 17/M08 A3017 RMK A01 T01711076  RH  018%=      5-min Rain = 0
KSB1 231655Z 30007KT 17/M08 A3017 RMK A01 T01731077  RH  017%=      5-min Rain = 0
KSB1 231656Z 28007KT 17/M08 A3017 RMK A01 T01731082  RH  017%=      5-min Rain = 0
KSB1 231657Z 28008KT 17/M08 A3017 RMK A01 T01701080  RH  017%=      5-min Rain = 0
KSB1 231658Z 27007KT 17/M08 A3017 RMK A01 T01721081  RH  017%=      5-min Rain = 0
KSB1 231659Z 29004KT 17/M08 A3017 RMK A01 T01711083  RH  017%=      5-min Rain = 0
KSB1 231700Z 27008KT 17/M08 A3017 RMK A01 T01711078  RH  017%=      5-min Rain = 0
KSB1 231701Z 27006KT 17/M08 A3017 RMK A01 T01741076  RH  017%=      5-min Rain = 0
KSB1 231702Z 26007KT 17/M08 A3017 RMK A01 T01741077  RH  017%=      5-min Rain = 0
KSB1 231703Z 26006KT 17/M08 A3017 RMK A01 T01721081  RH  017%=      5-min Rain = 0
KSB1 231704Z 25006KT 17/M08 A3017 RMK A01 T01711080  RH  017%=      5-min Rain = 0
KSB1 231705Z 26008KT 17/M08 A3017 RMK A01 T01711082  RH  017%=      5-min Rain = 0
KSB1 231706Z 26009KT 17/M08 A3017 RMK A01 T01721079  RH  017%=      5-min Rain = 0
KSB1 231707Z 26012KT 18/M08 A3017 RMK A01 T01751078  RH  017%=      5-min Rain = 0
KSB1 231708Z 26015KT 18/M08 A3017 RMK A01 T01771080  RH  017%=      5-min Rain = 0
KSB1 231709Z 28010G17KT 18/M08 A3017 RMK A01 T01751079  RH  017%=      5-min Rain = 0
KSB1 231710Z 30007KT 18/M08 A3017 RMK A01 T01751076  RH  017%=      5-min Rain = 0
KSB1 231711Z 30005KT 17/M08 A3017 RMK A01 T01741078  RH  017%=      5-min Rain = 0
KSB1 231712Z 29006KT 17/M08 A3017 RMK A01 T01731076  RH  017%=      5-min Rain = 0
KSB1 231713Z 29006G12KT 17/M08 A3017 RMK A01 T01731077  RH  017%=      5-min Rain = 0
KSB1 231714Z 29007KT 17/M08 A3017 RMK A01 T01731077  RH  017%=      5-min Rain = 0
KSB1 231715Z 31009KT 17/M08 A3017 RMK A01 T01741076  RH  017%=      5-min Rain = 0
KSB1 231716Z 33011G16KT 18/M07 A3017 RMK A01 T01751074  RH  018%=      5-min Rain = 0
KSB1 231717Z 32011KT 18/M07 A3017 RMK A01 T01761072  RH  018%=      5-min Rain = 0
KSB1 231718Z 29011KT 18/M07 A3017 RMK A01 T01771072  RH  018%=      5-min Rain = 0
KSB1 231719Z 29013KT 18/M07 A3017 RMK A01 T01771074  RH  017%=      5-min Rain = 0
KSB1 231720Z 27010KT 18/M07 A3017 RMK A01 T01761073  RH  018%=      5-min Rain = 0
KSB1 231721Z 26011KT 17/M07 A3017 RMK A01 T01741072  RH  018%=      5-min Rain = 0
KSB1 231722Z 28015KT 17/M07 A3017 RMK A01 T01731071  RH  018%=      5-min Rain = 0
KSB1 231723Z 28011KT 17/M07 A3017 RMK A01 T01741072  RH  018%=      5-min Rain = 0
KSB1 231724Z 27011KT 18/M07 A3017 RMK A01 T01761070  RH  018%=      5-min Rain = 0
KSB1 231725Z 26014KT 18/M07 A3017 RMK A01 T01761073  RH  018%=      5-min Rain = 0
KSB1 231726Z 26013KT 17/M08 A3017 RMK A01 T01741076  RH  017%=      5-min Rain = 0
KSB1 231727Z 26010KT 17/M07 A3017 RMK A01 T01741073  RH  018%=      5-min Rain = 0
KSB1 231728Z 25012KT 18/M07 A3017 RMK A01 T01751072  RH  018%=      5-min Rain = 0
KSB1 231729Z 28010KT 18/M07 A3017 RMK A01 T01751074  RH  018%=      5-min Rain = 0
KSB1 231730Z 29011KT 18/M07 A3017 RMK A01 T01771072  RH  018%=      5-min Rain = 0
KSB1 231731Z 29014KT 18/M07 A3017 RMK A01 T01791072  RH  017%=      5-min Rain = 0
KSB1 231732Z 29009KT 18/M07 A3017 RMK A01 T01771072  RH  018%=      5-min Rain = 0
KSB1 231733Z 31008KT 18/M07 A3017 RMK A01 T01751071  RH  018%=      5-min Rain = 0
KSB1 231734Z 29011KT 18/M07 A3017 RMK A01 T01751069  RH  018%=      5-min Rain = 0
KSB1 231735Z 28016G22KT 18/M07 A3017 RMK A01 T01751070  RH  018%=      5-min Rain = 0
KSB1 231736Z 26013KT 18/M07 A3017 RMK A01 T01781070  RH  018%=      5-min Rain = 0
KSB1 231737Z 26015KT 18/M07 A3017 RMK A01 T01781071  RH  018%=      5-min Rain = 0
KSB1 231738Z 26014KT 18/M07 A3017 RMK A01 T01791070  RH  018%=      5-min Rain = 0
KSB1 231739Z 27015KT 18/M06 A3017 RMK A01 T01791061  RH  019%=      5-min Rain = 0
KSB1 231740Z 27010KT 18/M06 A3017 RMK A01 T01771063  RH  019%=      5-min Rain = 0
KSB1 231741Z 26007KT 17/M07 A3017 RMK A01 T01741065  RH  019%=      5-min Rain = 0
KSB1 231742Z 30009G14KT 17/M06 A3017 RMK A01 T01721064  RH  019%=      5-min Rain = 0
KSB1 231743Z 32013KT 18/M06 A3017 RMK A01 T01751061  RH  019%=      5-min Rain = 0
KSB1 231744Z 30009KT 18/M07 A3017 RMK A01 T01761067  RH  019%=      5-min Rain = 0
KSB1 231745Z 31008G13KT 18/M07 A3017 RMK A01 T01761066  RH  019%=      5-min Rain = 0
KSB1 231746Z 30010KT 18/M06 A3017 RMK A01 T01781063  RH  019%=      5-min Rain = 0
KSB1 231747Z 28011KT 18/M06 A3017 RMK A01 T01791064  RH  019%=      5-min Rain = 0
KSB1 231748Z 29009G14KT 18/M06 A3017 RMK A01 T01791064  RH  018%=      5-min Rain = 0
KSB1 231749Z 30012G18KT 18/M06 A3017 RMK A01 T01821060  RH  019%=      5-min Rain = 0
KSB1 231750Z 30013G18KT 18/M06 A3017 RMK A01 T01831061  RH  018%=      5-min Rain = 0
KSB1 231751Z 29013KT 18/M06 A3017 RMK A01 T01801062  RH  019%=      5-min Rain = 0
KSB1 231752Z 28012KT 18/M06 A3017 RMK A01 T01781063  RH  019%=      5-min Rain = 0
KSB1 231753Z 28013KT 18/M07 A3017 RMK A01 T01761066  RH  019%=      5-min Rain = 0
KSB1 231754Z 26009KT 18/M07 A3017 RMK A01 T01751065  RH  019%=      5-min Rain = 0
KSB1 231755Z 26012KT 18/M06 A3017 RMK A01 T01771063  RH  019%=      5-min Rain = 0
KSB1 231756Z 26012G17KT 18/M06 A3017 RMK A01 T01771063  RH  019%=      5-min Rain = 0
KSB1 231757Z 27011KT 17/M07 A3017 RMK A01 T01741065  RH  019%=      5-min Rain = 0
KSB1 231758Z 29016KT 17/M07 A3017 RMK A01 T01731065  RH  019%=      5-min Rain = 0
KSB1 231759Z 26012KT 17/M07 A3017 RMK A01 T01731065  RH  019%=      5-min Rain = 0
KSB1 231800Z 26009KT 17/M06 A3017 RMK A01 T01731064  RH  019%=      5-min Rain = 0
KSB1 231801Z 25012G18KT 18/M06 A3017 RMK A01 T01751062  RH  019%=      5-min Rain = 0
KSB1 231802Z 27017KT 18/M06 A3016 RMK A01 T01781060  RH  019%=      5-min Rain = 0
KSB1 231803Z 28017KT 18/M06 A3017 RMK A01 T01781061  RH  019%=      5-min Rain = 0
KSB1 231804Z 30015G20KT 18/M06 A3016 RMK A01 T01771064  RH  019%=      5-min Rain = 0
KSB1 231805Z 29014KT 18/M07 A3017 RMK A01 T01771065  RH  019%=      5-min Rain = 0
KSB1 231806Z 28013G18KT 18/M07 A3017 RMK A01 T01761065  RH  019%=      5-min Rain = 0
KSB1 231807Z 30009KT 18/M06 A3016 RMK A01 T01771062  RH  019%=      5-min Rain = 0
KSB1 231808Z 29008KT 18/M06 A3016 RMK A01 T01751063  RH  019%=      5-min Rain = 0
KSB1 231809Z 29015G20KT 18/M06 A3016 RMK A01 T01751063  RH  019%=      5-min Rain = 0
KSB1 231810Z 29012KT 18/M06 A3017 RMK A01 T01751064  RH  019%=      5-min Rain = 0
KSB1 231811Z 26013KT 18/M06 A3016 RMK A01 T01771062  RH  019%=      5-min Rain = 0
KSB1 231812Z 29014KT 18/M06 A3016 RMK A01 T01771061  RH  019%=      5-min Rain = 0
KSB1 231813Z 27012G17KT 18/M06 A3016 RMK A01 T01771059  RH  019%=      5-min Rain = 0
KSB1 231814Z 27008KT 18/M06 A3016 RMK A01 T01791059  RH  019%=      5-min Rain = 0
KSB1 231815Z 28010KT 18/M06 A3016 RMK A01 T01791060  RH  019%=      5-min Rain = 0
KSB1 231816Z 27014KT 18/M06 A3016 RMK A01 T01791058  RH  019%=      5-min Rain = 0
KSB1 231817Z 27014KT 18/M06 A3016 RMK A01 T01801060  RH  019%=      5-min Rain = 0
KSB1 231818Z 27011KT 18/M06 A3016 RMK A01 T01771063  RH  019%=      5-min Rain = 0
KSB1 231819Z 26013G18KT 18/M06 A3016 RMK A01 T01751062  RH  019%=      5-min Rain = 0
KSB1 231820Z 25011KT 18/M06 A3016 RMK A01 T01751061  RH  019%=      5-min Rain = 0
KSB1 231821Z 26017KT 18/M06 A3016 RMK A01 T01761060  RH  019%=      5-min Rain = 0
KSB1 231822Z 26015KT 18/M06 A3016 RMK A01 T01781061  RH  019%=      5-min Rain = 0
KSB1 231823Z 27010KT 18/M06 A3015 RMK A01 T01791060  RH  019%=      5-min Rain = 0
KSB1 231824Z 29012KT 18/M06 A3016 RMK A01 T01821057  RH  019%=      5-min Rain = 0
KSB1 231825Z 27012KT 19/M06 A3016 RMK A01 T01851058  RH  019%=      5-min Rain = 0
KSB1 231826Z 26014KT 18/M06 A3016 RMK A01 T01821061  RH  019%=      5-min Rain = 0
KSB1 231827Z 28011KT 18/M06 A3015 RMK A01 T01781062  RH  019%=      5-min Rain = 0
KSB1 231828Z 30013KT 18/M06 A3016 RMK A01 T01811057  RH  019%=      5-min Rain = 0
KSB1 231829Z 29013KT 18/M06 A3016 RMK A01 T01831057  RH  019%=      5-min Rain = 0
KSB1 231830Z 28013G18KT 18/M06 A3016 RMK A01 T01821059  RH  019%=      5-min Rain = 0
KSB1 231831Z 29014KT 18/M06 A3016 RMK A01 T01821059  RH  019%=      5-min Rain = 0
KSB1 231832Z 29017KT 18/M06 A3015 RMK A01 T01821059  RH  019%=      5-min Rain = 0
KSB1 231833Z 28012KT 18/M06 A3015 RMK A01 T01811060  RH  019%=      5-min Rain = 0
KSB1 231834Z 26013KT 18/M06 A3015 RMK A01 T01821057  RH  019%=      5-min Rain = 0
KSB1 231835Z 26014KT 19/M06 A3015 RMK A01 T01851059  RH  019%=      5-min Rain = 0
KSB1 231836Z 27017G23KT 18/M06 A3015 RMK A01 T01841059  RH  019%=      5-min Rain = 0
KSB1 231837Z 29014G19KT 19/M06 A3015 RMK A01 T01861057  RH  019%=      5-min Rain = 0
KSB1 231838Z 29016G22KT 19/M06 A3015 RMK A01 T01891058  RH  018%=      5-min Rain = 0
KSB1 231839Z 28017KT 19/M06 A3015 RMK A01 T01871062  RH  018%=      5-min Rain = 0
KSB1 231840Z 28016G21KT 18/M06 A3015 RMK A01 T01831063  RH  018%=      5-min Rain = 0
KSB1 231841Z 27014KT 18/M06 A3015 RMK A01 T01831061  RH  018%=      5-min Rain = 0
KSB1 231842Z 27012KT 18/M06 A3015 RMK A01 T01811063  RH  018%=      5-min Rain = 0
KSB1 231843Z 27012KT 18/M06 A3015 RMK A01 T01811062  RH  019%=      5-min Rain = 0
KSB1 231844Z 26014KT 18/M06 A3015 RMK A01 T01831061  RH  018%=      5-min Rain = 0
KSB1 231845Z 26010G16KT 18/M06 A3015 RMK A01 T01831063  RH  018%=      5-min Rain = 0
KSB1 231846Z 25015KT 18/M06 A3015 RMK A01 T01831063  RH  018%=      5-min Rain = 0
KSB1 231847Z 27013KT 19/M07 A3015 RMK A01 T01851065  RH  018%=      5-min Rain = 0
KSB1 231848Z 28011KT 19/M06 A3015 RMK A01 T01851063  RH  018%=      5-min Rain = 0
KSB1 231849Z 26011KT 18/M06 A3015 RMK A01 T01841061  RH  018%=      5-min Rain = 0
KSB1 231850Z 26018G23KT 19/M06 A3015 RMK A01 T01851064  RH  018%=      5-min Rain = 0
KSB1 231851Z 27014KT 18/M07 A3015 RMK A01 T01841070  RH  017%=      5-min Rain = 0
KSB1 231852Z 26013KT 18/M07 A3015 RMK A01 T01831067  RH  018%=      5-min Rain = 0
KSB1 231853Z 28014KT 18/M06 A3015 RMK A01 T01821064  RH  018%=      5-min Rain = 0
KSB1 231854Z 28016KT 19/M06 A3015 RMK A01 T01881060  RH  018%=      5-min Rain = 0
KSB1 231855Z 26017KT 19/M07 A3015 RMK A01 T01881065  RH  017%=      5-min Rain = 0
KSB1 231856Z 26016KT 19/M07 A3015 RMK A01 T01881065  RH  017%=      5-min Rain = 0
KSB1 231857Z 26013KT 19/M07 A3015 RMK A01 T01871068  RH  017%=      5-min Rain = 0
KSB1 231858Z 27013KT 19/M07 A3015 RMK A01 T01851070  RH  017%=      5-min Rain = 0
KSB1 231859Z 26012G19KT 18/M07 A3014 RMK A01 T01831069  RH  017%=      5-min Rain = 0
KSB1 231900Z 27015KT 18/M07 A3015 RMK A01 T01841069  RH  017%=      5-min Rain = 0
KSB1 231901Z 26015KT 19/M07 A3014 RMK A01 T01851070  RH  017%=      5-min Rain = 0
KSB1 231902Z 25013KT 19/M07 A3014 RMK A01 T01871070  RH  017%=      5-min Rain = 0
KSB1 231903Z 25010KT 19/M07 A3014 RMK A01 T01901072  RH  016%=      5-min Rain = 0
KSB1 231904Z 25012KT 19/M07 A3014 RMK A01 T01911070  RH  016%=      5-min Rain = 0
KSB1 231905Z 27011KT 19/M07 A3014 RMK A01 T01911068  RH  017%=      5-min Rain = 0
KSB1 231906Z 26011KT 19/M07 A3014 RMK A01 T01941065  RH  017%=      5-min Rain = 0
KSB1 231907Z 25014G19KT 19/M07 A3014 RMK A01 T01911069  RH  017%=      5-min Rain = 0
KSB1 231908Z 24012KT 19/M07 A3014 RMK A01 T01891068  RH  017%=      5-min Rain = 0
KSB1 231909Z 24010KT 19/M07 A3014 RMK A01 T01861070  RH  017%=      5-min Rain = 0
KSB1 231910Z 28009G14KT 18/M07 A3014 RMK A01 T01841067  RH  018%=      5-min Rain = 0
KSB1 231911Z 30006G15KT 19/M07 A3014 RMK A01 T01861068  RH  017%=      5-min Rain = 0
KSB1 231912Z 32008KT 19/M07 A3014 RMK A01 T01861067  RH  017%=      5-min Rain = 0
KSB1 231913Z 31012G20KT 19/M07 A3014 RMK A01 T01891066  RH  017%=      5-min Rain = 0
KSB1 231914Z 30011KT 19/M07 A3014 RMK A01 T01921066  RH  017%=      5-min Rain = 0
KSB1 231915Z 30014KT 19/M07 A3014 RMK A01 T01941067  RH  016%=      5-min Rain = 0
KSB1 231916Z 31013KT 19/M07 A3014 RMK A01 T01921069  RH  016%=      5-min Rain = 0
KSB1 231917Z 31008KT 19/M07 A3014 RMK A01 T01891068  RH  017%=      5-min Rain = 0
KSB1 231918Z 30010KT 19/M07 A3014 RMK A01 T01891066  RH  017%=      5-min Rain = 0
KSB1 231919Z 30008KT 19/M07 A3014 RMK A01 T01891068  RH  017%=      5-min Rain = 0
KSB1 231920Z 28004KT 19/M07 A3014 RMK A01 T01861069  RH  017%=      5-min Rain = 0
KSB1 231921Z 29013KT 19/M07 A3014 RMK A01 T01871069  RH  017%=      5-min Rain = 0
KSB1 231922Z 30012KT 19/M07 A3014 RMK A01 T01881073  RH  016%=      5-min Rain = 0
KSB1 231923Z 30014KT 19/M07 A3013 RMK A01 T01891070  RH  017%=      5-min Rain = 0
KSB1 231924Z 29012KT 19/M07 A3014 RMK A01 T01911068  RH  017%=      5-min Rain = 0
KSB1 231925Z 28009KT 19/M07 A3014 RMK A01 T01921065  RH  017%=      5-min Rain = 0
KSB1 231926Z 29011KT 19/M07 A3014 RMK A01 T01941066  RH  017%=      5-min Rain = 0
KSB1 231927Z 29012KT 19/M07 A3013 RMK A01 T01941067  RH  017%=      5-min Rain = 0
KSB1 231928Z 30012KT 20/M07 A3014 RMK A01 T01951068  RH  016%=      5-min Rain = 0
KSB1 231929Z 32008KT 19/M07 A3013 RMK A01 T01941068  RH  016%=      5-min Rain = 0
KSB1 231930Z 31008KT 19/M07 A3013 RMK A01 T01941068  RH  016%=      5-min Rain = 0
KSB1 231931Z 29011KT 19/M07 A3013 RMK A01 T01941070  RH  016%=      5-min Rain = 0
KSB1 231932Z 27009G14KT 19/M07 A3013 RMK A01 T01911070  RH  016%=      5-min Rain = 0
KSB1 231933Z 27012KT 19/M07 A3013 RMK A01 T01911069  RH  016%=      5-min Rain = 0
KSB1 231934Z 27009KT 19/M07 A3013 RMK A01 T01911072  RH  016%=      5-min Rain = 0
KSB1 231935Z 28006KT 19/M07 A3013 RMK A01 T01911071  RH  016%=      5-min Rain = 0
KSB1 231936Z 29005KT 19/M07 A3013 RMK A01 T01901071  RH  016%=      5-min Rain = 0
KSB1 231937Z 27011G17KT 19/M07 A3013 RMK A01 T01901066  RH  017%=      5-min Rain = 0
KSB1 231938Z 28014KT 19/M07 A3013 RMK A01 T01901066  RH  017%=      5-min Rain = 0
KSB1 231939Z 30014KT 19/M07 A3013 RMK A01 T01911067  RH  017%=      5-min Rain = 0
KSB1 231940Z 30014KT 19/M07 A3013 RMK A01 T01911066  RH  017%=      5-min Rain = 0
KSB1 231941Z 30007KT 19/M07 A3013 RMK A01 T01921066  RH  017%=      5-min Rain = 0
KSB1 231942Z 30011KT 19/M07 A3013 RMK A01 T01941066  RH  017%=      5-min Rain = 0
KSB1 231943Z 31014KT 19/M07 A3013 RMK A01 T01941069  RH  016%=      5-min Rain = 0
KSB1 231944Z 30013KT 19/M07 A3013 RMK A01 T01931071  RH  016%=      5-min Rain = 0
KSB1 231945Z 30012KT 19/M07 A3013 RMK A01 T01921068  RH  017%=      5-min Rain = 0
KSB1 231946Z 30008G13KT 19/M07 A3013 RMK A01 T01931068  RH  016%=      5-min Rain = 0
KSB1 231947Z 28016KT 19/M07 A3013 RMK A01 T01921067  RH  017%=      5-min Rain = 0
KSB1 231948Z 27018KT 19/M07 A3013 RMK A01 T01911068  RH  017%=      5-min Rain = 0
KSB1 231949Z 28015KT 19/M07 A3013 RMK A01 T01901068  RH  017%=      5-min Rain = 0
KSB1 231950Z 26012KT 19/M07 A3013 RMK A01 T01911068  RH  017%=      5-min Rain = 0
KSB1 231951Z 26009KT 19/M07 A3013 RMK A01 T01921069  RH  016%=      5-min Rain = 0
KSB1 231952Z 27008KT 19/M07 A3013 RMK A01 T01901071  RH  016%=      5-min Rain = 0
KSB1 231953Z 26009G16KT 19/M07 A3013 RMK A01 T01891069  RH  017%=      5-min Rain = 0
KSB1 231954Z 24013KT 19/M07 A3013 RMK A01 T01901069  RH  017%=      5-min Rain = 0
KSB1 231955Z 23012KT 19/M07 A3012 RMK A01 T01901069  RH  017%=      5-min Rain = 0
KSB1 231956Z 24011KT 19/M07 A3012 RMK A01 T01921067  RH  017%=      5-min Rain = 0
KSB1 231957Z 28011KT 19/M07 A3012 RMK A01 T01931066  RH  017%=      5-min Rain = 0
KSB1 231958Z 28011KT 19/M07 A3012 RMK A01 T01941069  RH  016%=      5-min Rain = 0
KSB1 231959Z 28014KT 19/M07 A3013 RMK A01 T01941068  RH  016%=      5-min Rain = 0
KSB1 232000Z 29011KT 19/M07 A3012 RMK A01 T01931068  RH  016%=      5-min Rain = 0
KSB1 232001Z 28014KT 19/M07 A3012 RMK A01 T01921068  RH  017%=      5-min Rain = 0
KSB1 232002Z 29012KT 19/M07 A3012 RMK A01 T01921068  RH  016%=      5-min Rain = 0
KSB1 232003Z 29011KT 19/M07 A3012 RMK A01 T01931069  RH  016%=      5-min Rain = 0
KSB1 232004Z 29011KT 19/M07 A3012 RMK A01 T01921069  RH  016%=      5-min Rain = 0
KSB1 232005Z 28012KT 19/M07 A3012 RMK A01 T01931070  RH  016%=      5-min Rain = 0
KSB1 232006Z 28011KT 19/M07 A3012 RMK A01 T01911070  RH  016%=      5-min Rain = 0
KSB1 232007Z 29013KT 19/M07 A3012 RMK A01 T01921068  RH  017%=      5-min Rain = 0
KSB1 232008Z 28006G13KT 19/M07 A3012 RMK A01 T01931068  RH  016%=      5-min Rain = 0
KSB1 232009Z 28005KT 19/M07 A3012 RMK A01 T01911069  RH  016%=      5-min Rain = 0
KSB1 232010Z 28009KT 19/M07 A3011 RMK A01 T01911067  RH  017%=      5-min Rain = 0
KSB1 232011Z 26010KT 19/M07 A3011 RMK A01 T01941065  RH  017%=      5-min Rain = 0
KSB1 232012Z 25009KT 20/M07 A3011 RMK A01 T01951067  RH  016%=      5-min Rain = 0
KSB1 232013Z 26008KT 20/M07 A3011 RMK A01 T01961066  RH  016%=      5-min Rain = 0
KSB1 232014Z 25014KT 20/M06 A3011 RMK A01 T01981063  RH  016%=      5-min Rain = 0
KSB1 232015Z 24013KT 20/M07 A3011 RMK A01 T02001066  RH  016%=      5-min Rain = 0
KSB1 232016Z 25010KT 20/M07 A3011 RMK A01 T01991066  RH  016%=      5-min Rain = 0
KSB1 232017Z 24008KT 20/M07 A3011 RMK A01 T02001066  RH  016%=      5-min Rain = 0
KSB1 232018Z 26008KT 20/M06 A3011 RMK A01 T02001064  RH  016%=      5-min Rain = 0
KSB1 232019Z 27006KT 20/M06 A3011 RMK A01 T02011064  RH  016%=      5-min Rain = 0
KSB1 232020Z 31008KT 20/M07 A3011 RMK A01 T02021065  RH  016%=      5-min Rain = 0
KSB1 232021Z 27006KT 20/M07 A3011 RMK A01 T02001066  RH  016%=      5-min Rain = 0
KSB1 232022Z 28006KT 20/M07 A3011 RMK A01 T01981065  RH  016%=      5-min Rain = 0
KSB1 232023Z 29013KT 20/M06 A3011 RMK A01 T01981064  RH  016%=      5-min Rain = 0
KSB1 232024Z 29013KT 20/M07 A3011 RMK A01 T01991067  RH  016%=      5-min Rain = 0
KSB1 232025Z 28009KT 20/M07 A3011 RMK A01 T01971067  RH  016%=      5-min Rain = 0
KSB1 232026Z 25012G17KT 20/M06 A3011 RMK A01 T02001063  RH  016%=      5-min Rain = 0
KSB1 232027Z 25012G20KT 20/M07 A3011 RMK A01 T02031067  RH  016%=      5-min Rain = 0
KSB1 232028Z 25010KT 20/M07 A3011 RMK A01 T02011070  RH  015%=      5-min Rain = 0
KSB1 232029Z 27013KT 20/M07 A3011 RMK A01 T02021068  RH  016%=      5-min Rain = 0
KSB1 232030Z 28011KT 20/M07 A3011 RMK A01 T02021070  RH  015%=      5-min Rain = 0
KSB1 232031Z 29006KT 20/M07 A301 RMK A01 T02021070  RH  015%=      5-min Rain = 0
KSB1 232032Z 29006KT 20/M07 A301 RMK A01 T02021070  RH  015%=      5-min Rain = 0
KSB1 232033Z 29007KT 20/M07 A301 RMK A01 T02041070  RH  015%=      5-min Rain = 0
KSB1 232034Z 26010KT 21/M07 A301 RMK A01 T02051071  RH  015%=      5-min Rain = 0
KSB1 232035Z 25013KT 21/M08 A301 RMK A01 T02071079  RH  014%=      5-min Rain = 0
KSB1 232036Z 27012KT 21/M08 A301 RMK A01 T02061083  RH  014%=      5-min Rain = 0
KSB1 232037Z 24013KT 20/M08 A301 RMK A01 T02041081  RH  014%=      5-min Rain = 0
KSB1 232038Z 25008KT 21/M08 A301 RMK A01 T02061077  RH  014%=      5-min Rain = 0
KSB1 232039Z 30011G16KT 20/M07 A301 RMK A01 T02041072  RH  015%=      5-min Rain = 0
KSB1 232040Z 28012KT 21/M07 A301 RMK A01 T02051070  RH  015%=      5-min Rain = 0
KSB1 232041Z 27010KT 21/M07 A301 RMK A01 T02051072  RH  015%=      5-min Rain = 0
KSB1 232042Z 29012KT 20/M07 A301 RMK A01 T02041070  RH  015%=      5-min Rain = 0
KSB1 232043Z 28008G14KT 20/M07 A301 RMK A01 T02021072  RH  015%=      5-min Rain = 0
KSB1 232044Z 31008KT 20/M07 A301 RMK A01 T02001070  RH  016%=      5-min Rain = 0
KSB1 232045Z 30014G19KT 20/M07 A301 RMK A01 T02021069  RH  015%=      5-min Rain = 0
KSB1 232046Z 28014G19KT 20/M08 A301 RMK A01 T02031077  RH  014%=      5-min Rain = 0
KSB1 232047Z 28010KT 20/M08 A301 RMK A01 T02031080  RH  014%=      5-min Rain = 0
KSB1 232048Z 26012G17KT 20/M08 A301 RMK A01 T02021084  RH  014%=      5-min Rain = 0
KSB1 232049Z 25015KT 20/M09 A301 RMK A01 T02021085  RH  014%=      5-min Rain = 0
KSB1 232050Z 23015KT 21/M08 A301 RMK A01 T02051082  RH  014%=      5-min Rain = 0
KSB1 232051Z 25016KT 21/M08 A301 RMK A01 T02081080  RH  014%=      5-min Rain = 0
KSB1 232052Z 28012KT 21/M08 A301 RMK A01 T02111081  RH  013%=      5-min Rain = 0
KSB1 232053Z 29013KT 21/M09 A301 RMK A01 T02111087  RH  013%=      5-min Rain = 0
KSB1 232054Z 29014KT 21/M09 A301 RMK A01 T02091085  RH  013%=      5-min Rain = 0
KSB1 232055Z 29014KT 21/M08 A301 RMK A01 T02121083  RH  013%=      5-min Rain = 0
KSB1 232056Z 28014G19KT 21/M08 A301 RMK A01 T02131084  RH  013%=      5-min Rain = 0
KSB1 232057Z 29018KT 21/M09 A301 RMK A01 T02121087  RH  013%=      5-min Rain = 0
KSB1 232058Z 29018KT 21/M09 A301 RMK A01 T02081088  RH  013%=      5-min Rain = 0
KSB1 232059Z 28017KT 21/M08 A301 RMK A01 T02091084  RH  013%=      5-min Rain = 0
KSB1 232100Z 28015KT 21/M09 A301 RMK A01 T02111085  RH  013%=      5-min Rain = 0
KSB1 232101Z 28012G17KT 21/M09 A301 RMK A01 T02091086  RH  013%=      5-min Rain = 0
KSB1 232102Z 28011KT 21/M09 A301 RMK A01 T02081085  RH  013%=      5-min Rain = 0
KSB1 232103Z 28013KT 21/M09 A301 RMK A01 T02071085  RH  013%=      5-min Rain = 0
KSB1 232104Z 28014KT 21/M08 A301 RMK A01 T02101080  RH  013%=      5-min Rain = 0
KSB1 232105Z 28014KT 21/M08 A301 RMK A01 T02111081  RH  013%=      5-min Rain = 0
KSB1 232106Z 28014KT 21/M08 A301 RMK A01 T02091083  RH  013%=      5-min Rain = 0
KSB1 232107Z 27013KT 21/M08 A301 RMK A01 T02051084  RH  013%=      5-min Rain = 0
KSB1 232108Z 27009KT 21/M08 A301 RMK A01 T02051083  RH  014%=      5-min Rain = 0
KSB1 232109Z 26010KT 21/M08 A3009 RMK A01 T02051082  RH  014%=      5-min Rain = 0
KSB1 232110Z 27010G19KT 21/M08 A3009 RMK A01 T02051082  RH  014%=      5-min Rain = 0
KSB1 232111Z 30013KT 21/M08 A3009 RMK A01 T02071080  RH  014%=      5-min Rain = 0
KSB1 232112Z 29015KT 21/M08 A3009 RMK A01 T02071081  RH  014%=      5-min Rain = 0
KSB1 232113Z 26013KT 21/M08 A3009 RMK A01 T02081081  RH  014%=      5-min Rain = 0
KSB1 232114Z 25013G19KT 21/M08 A3009 RMK A01 T02061083  RH  013%=      5-min Rain = 0
KSB1 232115Z 27011G16KT 21/M08 A3009 RMK A01 T02051082  RH  014%=      5-min Rain = 0
KSB1 232116Z 27012KT 21/M08 A3009 RMK A01 T02081080  RH  014%=      5-min Rain = 0
KSB1 232117Z 27010KT 21/M08 A3009 RMK A01 T02091081  RH  014%=      5-min Rain = 0
KSB1 232118Z 26011KT 21/M08 A3009 RMK A01 T02091079  RH  014%=      5-min Rain = 0
KSB1 232119Z 25011KT 21/M08 A3009 RMK A01 T02101080  RH  013%=      5-min Rain = 0
KSB1 232120Z 23008KT 21/M08 A3009 RMK A01 T02101082  RH  013%=      5-min Rain = 0
KSB1 232121Z 25007KT 21/M08 A3009 RMK A01 T02071083  RH  013%=      5-min Rain = 0
KSB1 232122Z 27007G12KT 21/M08 A3009 RMK A01 T02071081  RH  014%=      5-min Rain = 0
KSB1 232123Z 28012KT 21/M08 A3009 RMK A01 T02081079  RH  014%=      5-min Rain = 0
KSB1 232124Z 27009KT 21/M08 A3009 RMK A01 T02101078  RH  014%=      5-min Rain = 0
KSB1 232125Z 27009KT 21/M08 A3009 RMK A01 T02111079  RH  014%=      5-min Rain = 0
KSB1 232126Z 28013KT 21/M08 A3009 RMK A01 T02121077  RH  014%=      5-min Rain = 0
KSB1 232127Z 27011KT 21/M08 A3009 RMK A01 T02141078  RH  013%=      5-min Rain = 0
KSB1 232128Z 28013KT 21/M08 A3008 RMK A01 T02131081  RH  013%=      5-min Rain = 0
KSB1 232129Z 29011KT 21/M08 A3008 RMK A01 T02111082  RH  013%=      5-min Rain = 0
KSB1 232130Z 28008G13KT 21/M08 A3008 RMK A01 T02071084  RH  013%=      5-min Rain = 0
KSB1 232131Z 28004KT 20/M08 A3008 RMK A01 T02041084  RH  014%=      5-min Rain = 0
KSB1 232132Z 33006KT 20/M08 A3008 RMK A01 T02041082  RH  014%=      5-min Rain = 0
KSB1 232133Z 33006KT 21/M08 A3008 RMK A01 T02061081  RH  014%=      5-min Rain = 0
KSB1 232134Z 28010G19KT 21/M08 A3007 RMK A01 T02081080  RH  014%=      5-min Rain = 0
KSB1 232135Z 24013KT 21/M08 A3008 RMK A01 T02121078  RH  014%=      5-min Rain = 0
KSB1 232136Z 25014KT 21/M08 A3008 RMK A01 T02131080  RH  013%=      5-min Rain = 0
KSB1 232137Z 23015G20KT 21/M08 A3008 RMK A01 T02131080  RH  013%=      5-min Rain = 0
KSB1 232138Z 23015KT 21/M08 A3008 RMK A01 T02121082  RH  013%=      5-min Rain = 0
KSB1 232139Z 22009G14KT 21/M08 A3008 RMK A01 T02091083  RH  013%=      5-min Rain = 0
KSB1 232140Z 22008KT 21/M08 A3008 RMK A01 T02061083  RH  013%=      5-min Rain = 0
KSB1 232141Z 24010KT 21/M08 A3008 RMK A01 T02081079  RH  014%=      5-min Rain = 0
KSB1 232142Z 25006KT 21/M08 A3007 RMK A01 T02091082  RH  013%=      5-min Rain = 0
KSB1 232143Z 23009KT 21/M08 A3007 RMK A01 T02071081  RH  014%=      5-min Rain = 0
KSB1 232144Z 22009KT 21/M08 A3007 RMK A01 T02051080  RH  014%=      5-min Rain = 0
KSB1 232145Z 24008KT 20/M08 A3007 RMK A01 T02031080  RH  014%=      5-min Rain = 0
KSB1 232146Z 21007KT 20/M08 A3007 RMK A01 T02021081  RH  014%=      5-min Rain = 0
KSB1 232147Z 23008KT 20/M08 A3007 RMK A01 T02021079  RH  014%=      5-min Rain = 0
KSB1 232148Z 24018G27KT 21/M08 A3007 RMK A01 T02051077  RH  014%=      5-min Rain = 0
KSB1 232149Z 28013G20KT 21/M08 A3007 RMK A01 T02071078  RH  014%=      5-min Rain = 0
KSB1 232150Z 26012KT 21/M08 A3007 RMK A01 T02071081  RH  014%=      5-min Rain = 0
KSB1 232151Z 24011KT 21/M08 A3007 RMK A01 T02051083  RH  014%=      5-min Rain = 0
KSB1 232152Z 26011KT 20/M08 A3008 RMK A01 T02041084  RH  014%=      5-min Rain = 0
KSB1 232153Z 26011KT 20/M08 A3007 RMK A01 T02041084  RH  014%=      5-min Rain = 0
KSB1 232154Z 27012KT 20/M09 A3007 RMK A01 T02031085  RH  014%=      5-min Rain = 0
KSB1 232155Z 26013KT 20/M08 A3008 RMK A01 T02031084  RH  014%=      5-min Rain = 0
KSB1 232156Z 26010KT 20/M08 A3008 RMK A01 T02041083  RH  014%=      5-min Rain = 0
KSB1 232157Z 26010KT 21/M08 A3008 RMK A01 T02061082  RH  014%=      5-min Rain = 0
KSB1 232158Z 24006KT 21/M08 A3007 RMK A01 T02081081  RH  014%=      5-min Rain = 0
KSB1 232159Z 24008KT 21/M08 A3007 RMK A01 T02101079  RH  014%=      5-min Rain = 0
KSB1 232200Z 23008KT 21/M08 A3007 RMK A01 T02111079  RH  013%=      5-min Rain = 0
KSB1 232201Z 22009KT 21/M08 A3007 RMK A01 T02111080  RH  013%=      5-min Rain = 0
KSB1 232202Z 22007KT 21/M08 A3007 RMK A01 T02091082  RH  013%=      5-min Rain = 0
KSB1 232203Z 23005KT 21/M08 A3007 RMK A01 T02091080  RH  014%=      5-min Rain = 0
KSB1 232204Z 23010KT 21/M08 A3007 RMK A01 T02111077  RH  014%=      5-min Rain = 0
KSB1 232205Z 22010KT 21/M08 A3007 RMK A01 T02121079  RH  013%=      5-min Rain = 0
KSB1 232206Z 24008KT 21/M08 A3007 RMK A01 T02121080  RH  013%=      5-min Rain = 0
KSB1 232207Z 27006G11KT 21/M08 A3007 RMK A01 T02121079  RH  013%=      5-min Rain = 0
KSB1 232208Z 29009KT 21/M08 A3007 RMK A01 T02141078  RH  013%=      5-min Rain = 0
KSB1 232209Z 29008KT 21/M08 A3007 RMK A01 T02141078  RH  013%=      5-min Rain = 0
KSB1 232210Z 29011G17KT 21/M08 A3007 RMK A01 T02141078  RH  013%=      5-min Rain = 0
KSB1 232211Z 30012KT 22/M08 A3007 RMK A01 T02151079  RH  013%=      5-min Rain = 0
KSB1 232212Z 29014KT 22/M08 A3007 RMK A01 T02161079  RH  013%=      5-min Rain = 0
KSB1 232213Z 29012G18KT 22/M08 A3007 RMK A01 T02161082  RH  013%=      5-min Rain = 0
KSB1 232214Z 27012G18KT 21/M08 A3007 RMK A01 T02141082  RH  013%=      5-min Rain = 0
KSB1 232215Z 27012KT 21/M08 A3007 RMK A01 T02131084  RH  013%=      5-min Rain = 0
KSB1 232216Z 25011KT 21/M09 A3007 RMK A01 T02131085  RH  013%=      5-min Rain = 0
KSB1 232217Z 23011KT 21/M08 A3007 RMK A01 T02131082  RH  013%=      5-min Rain = 0
KSB1 232218Z 22014KT 21/M08 A3006 RMK A01 T02131081  RH  013%=      5-min Rain = 0
KSB1 232219Z 23014KT 21/M08 A3007 RMK A01 T02131080  RH  013%=      5-min Rain = 0
KSB1 232220Z 26012KT 21/M08 A3007 RMK A01 T02131080  RH  013%=      5-min Rain = 0
KSB1 232221Z 25015KT 21/M08 A3007 RMK A01 T02141078  RH  013%=      5-min Rain = 0
KSB1 232222Z 24010KT 22/M08 A3007 RMK A01 T02151080  RH  013%=      5-min Rain = 0
KSB1 232223Z 24010KT 21/M08 A3007 RMK A01 T02121080  RH  013%=      5-min Rain = 0
KSB1 232224Z 25008KT 21/M08 A3007 RMK A01 T02121082  RH  013%=      5-min Rain = 0
KSB1 232225Z 25008KT 21/M08 A3007 RMK A01 T02111081  RH  013%=      5-min Rain = 0
KSB1 232226Z 27006KT 21/M08 A3006 RMK A01 T02101081  RH  013%=      5-min Rain = 0
KSB1 232227Z 28008KT 21/M08 A3006 RMK A01 T02111079  RH  013%=      5-min Rain = 0
KSB1 232228Z 29009KT 21/M08 A3006 RMK A01 T02141078  RH  013%=      5-min Rain = 0
KSB1 232229Z 29010KT 22/M08 A3006 RMK A01 T02161081  RH  013%=      5-min Rain = 0
KSB1 232230Z 29006KT 22/M08 A3006 RMK A01 T02161082  RH  013%=      5-min Rain = 0
KSB1 232231Z 28007KT 22/M08 A3006 RMK A01 T02151082  RH  013%=      5-min Rain = 0
KSB1 232232Z 28010G15KT 21/M08 A3006 RMK A01 T02131082  RH  013%=      5-min Rain = 0
KSB1 232233Z 30011KT 21/M08 A3006 RMK A01 T02141080  RH  013%=      5-min Rain = 0
KSB1 232234Z 27010KT 21/M08 A3006 RMK A01 T02141080  RH  013%=      5-min Rain = 0
KSB1 232235Z 24007KT 22/M08 A3006 RMK A01 T02151078  RH  013%=      5-min Rain = 0
KSB1 232236Z 25009KT 22/M08 A3006 RMK A01 T02181075  RH  013%=      5-min Rain = 0
KSB1 232237Z 26008KT 22/M08 A3006 RMK A01 T02191078  RH  013%=      5-min Rain = 0
KSB1 232238Z 26008KT 22/M08 A3006 RMK A01 T02171079  RH  013%=      5-min Rain = 0
KSB1 232239Z 24008KT 22/M08 A3006 RMK A01 T02161078  RH  013%=      5-min Rain = 0
KSB1 232240Z 28010KT 22/M08 A3006 RMK A01 T02171078  RH  013%=      5-min Rain = 0
KSB1 232241Z 26013KT 22/M08 A3006 RMK A01 T02171079  RH  013%=      5-min Rain = 0
KSB1 232242Z 26014KT 22/M08 A3006 RMK A01 T02171078  RH  013%=      5-min Rain = 0
KSB1 232243Z 27012G17KT 22/M08 A3006 RMK A01 T02171079  RH  013%=      5-min Rain = 0
KSB1 232244Z 28013KT 22/M08 A3006 RMK A01 T02161079  RH  013%=      5-min Rain = 0
KSB1 232245Z 27012KT 22/M08 A3006 RMK A01 T02151079  RH  013%=      5-min Rain = 0
KSB1 232246Z 29011KT 21/M08 A3006 RMK A01 T02141080  RH  013%=      5-min Rain = 0
KSB1 232247Z 28013KT 21/M08 A3006 RMK A01 T02131080  RH  013%=      5-min Rain = 0
KSB1 232248Z 29012KT 21/M08 A3006 RMK A01 T02131080  RH  013%=      5-min Rain = 0
KSB1 232249Z 29011KT 21/M08 A3006 RMK A01 T02131079  RH  013%=      5-min Rain = 0
KSB1 232250Z 27006KT 21/M08 A3006 RMK A01 T02131080  RH  013%=      5-min Rain = 0
KSB1 232251Z 29009KT 21/M08 A3006 RMK A01 T02131080  RH  013%=      5-min Rain = 0
KSB1 232252Z 29010KT 21/M08 A3006 RMK A01 T02131079  RH  013%=      5-min Rain = 0
KSB1 232253Z 30009KT 21/M08 A3006 RMK A01 T02141079  RH  013%=      5-min Rain = 0
KSB1 232254Z 30008KT 21/M08 A3006 RMK A01 T02131081  RH  013%=      5-min Rain = 0
KSB1 232255Z 28011KT 21/M08 A3006 RMK A01 T02131077  RH  014%=      5-min Rain = 0
KSB1 232256Z 28009KT 22/M08 A3006 RMK A01 T02151078  RH  013%=      5-min Rain = 0
KSB1 232257Z 28006KT 21/M08 A3006 RMK A01 T02121083  RH  013%=      5-min Rain = 0
KSB1 232258Z 25006KT 21/M08 A3006 RMK A01 T02101081  RH  013%=      5-min Rain = 0
KSB1 232259Z 27010KT 21/M08 A3006 RMK A01 T02111079  RH  013%=      5-min Rain = 0
KSB1 232300Z 29007KT 21/M08 A3006 RMK A01 T02111080  RH  013%=      5-min Rain = 0
KSB1 232301Z 29006KT 21/M08 A3006 RMK A01 T02121078  RH  014%=      5-min Rain = 0
KSB1 232302Z 27005KT 21/M08 A3006 RMK A01 T02131077  RH  014%=      5-min Rain = 0
KSB1 232303Z 27009KT 22/M08 A3006 RMK A01 T02151076  RH  014%=      5-min Rain = 0
KSB1 232304Z 26011KT 22/M08 A3006 RMK A01 T02181078  RH  013%=      5-min Rain = 0
KSB1 232305Z 25009G14KT 22/M08 A3006 RMK A01 T02171080  RH  013%=      5-min Rain = 0
KSB1 232306Z 27012KT 22/M08 A3006 RMK A01 T02181077  RH  013%=      5-min Rain = 0
KSB1 232307Z 27012KT 22/M08 A3006 RMK A01 T02181080  RH  013%=      5-min Rain = 0
KSB1 232308Z 27014KT 22/M08 A3006 RMK A01 T02161081  RH  013%=      5-min Rain = 0
KSB1 232309Z 26012KT 22/M08 A3006 RMK A01 T02161079  RH  013%=      5-min Rain = 0
KSB1 232310Z 26013KT 22/M08 A3006 RMK A01 T02161080  RH  013%=      5-min Rain = 0
KSB1 232311Z 25011KT 21/M08 A3006 RMK A01 T02141081  RH  013%=      5-min Rain = 0
KSB1 232312Z 25011KT 21/M08 A3006 RMK A01 T02131082  RH  013%=      5-min Rain = 0
KSB1 232313Z 24009KT 21/M08 A3005 RMK A01 T02121082  RH  013%=      5-min Rain = 0
KSB1 232314Z 24007KT 21/M08 A3005 RMK A01 T02121082  RH  013%=      5-min Rain = 0
KSB1 232315Z 22008KT 21/M08 A3005 RMK A01 T02111082  RH  013%=      5-min Rain = 0
KSB1 232316Z 22007KT 21/M08 A3005 RMK A01 T02111081  RH  013%=      5-min Rain = 0
KSB1 232317Z 22007KT 21/M08 A3005 RMK A01 T02101080  RH  013%=      5-min Rain = 0
KSB1 232318Z 22011KT 21/M08 A3005 RMK A01 T02111079  RH  013%=      5-min Rain = 0
KSB1 232319Z 22011KT 21/M08 A3005 RMK A01 T02121080  RH  013%=      5-min Rain = 0
KSB1 232320Z 24011KT 21/M08 A3005 RMK A01 T02131079  RH  013%=      5-min Rain = 0
KSB1 232321Z 25009KT 21/M08 A3005 RMK A01 T02131081  RH  013%=      5-min Rain = 0
KSB1 232322Z 27006KT 21/M08 A3005 RMK A01 T02141080  RH  013%=      5-min Rain = 0
KSB1 232323Z 27008KT 22/M08 A3005 RMK A01 T02161079  RH  013%=      5-min Rain = 0
KSB1 232324Z 27009KT 22/M08 A3005 RMK A01 T02181079  RH  013%=      5-min Rain = 0
KSB1 232325Z 27011KT 22/M08 A3005 RMK A01 T02191079  RH  013%=      5-min Rain = 0
KSB1 232326Z 29013KT 22/M08 A3005 RMK A01 T02191080  RH  013%=      5-min Rain = 0
KSB1 232327Z 30012KT 22/M08 A3005 RMK A01 T02181080  RH  013%=      5-min Rain = 0
KSB1 232328Z 29007KT 22/M08 A3005 RMK A01 T02161082  RH  013%=      5-min Rain = 0
KSB1 232329Z 27006KT 21/M08 A3005 RMK A01 T02131082  RH  013%=      5-min Rain = 0
KSB1 232330Z 27010KT 21/M08 A3005 RMK A01 T02131082  RH  013%=      5-min Rain = 0
KSB1 232331Z 28009KT 21/M08 A3005 RMK A01 T02141081  RH  013%=      5-min Rain = 0
KSB1 232332Z 28010G15KT 22/M08 A3005 RMK A01 T02161078  RH  013%=      5-min Rain = 0
KSB1 232333Z 26013KT 22/M08 A3005 RMK A01 T02171080  RH  013%=      5-min Rain = 0
KSB1 232334Z 26011KT 22/M08 A3005 RMK A01 T02171080  RH  013%=      5-min Rain = 0
KSB1 232335Z 25009KT 22/M08 A3005 RMK A01 T02151081  RH  013%=      5-min Rain = 0
KSB1 232336Z 25010KT 21/M08 A3005 RMK A01 T02131081  RH  013%=      5-min Rain = 0
KSB1 232337Z 26010KT 21/M08 A3005 RMK A01 T02141081  RH  013%=      5-min Rain = 0
KSB1 232338Z 26011KT 21/M08 A3005 RMK A01 T02141081  RH  013%=      5-min Rain = 0
KSB1 232339Z 26013G18KT 21/M08 A3005 RMK A01 T02141081  RH  013%=      5-min Rain = 0
KSB1 232340Z 25015KT 21/M08 A3005 RMK A01 T02141082  RH  013%=      5-min Rain = 0
KSB1 232341Z 25015KT 21/M08 A3005 RMK A01 T02141083  RH  013%=      5-min Rain = 0
KSB1 232342Z 25016KT 21/M08 A3005 RMK A01 T02131083  RH  013%=      5-min Rain = 0
KSB1 232343Z 25012KT 21/M08 A3006 RMK A01 T02131082  RH  013%=      5-min Rain = 0
KSB1 232344Z 25011KT 21/M08 A3006 RMK A01 T02131083  RH  013%=      5-min Rain = 0
KSB1 232345Z 25013KT 21/M08 A3006 RMK A01 T02121082  RH  013%=      5-min Rain = 0
KSB1 232346Z 25011KT 21/M08 A3006 RMK A01 T02121083  RH  013%=      5-min Rain = 0
KSB1 232347Z 25012KT 21/M08 A3006 RMK A01 T02111082  RH  013%=      5-min Rain = 0
KSB1 232348Z 25014KT 21/M08 A3006 RMK A01 T02111084  RH  013%=      5-min Rain = 0
KSB1 232349Z 25012KT 21/M08 A3006 RMK A01 T02101084  RH  013%=      5-min Rain = 0
KSB1 232350Z 24011KT 21/M08 A3006 RMK A01 T02101082  RH  013%=      5-min Rain = 0
KSB1 232351Z 25013KT 21/M08 A3006 RMK A01 T02111082  RH  013%=      5-min Rain = 0
KSB1 232352Z 25012KT 21/M08 A3006 RMK A01 T02101083  RH  013%=      5-min Rain = 0
KSB1 232353Z 25010KT 21/M08 A3006 RMK A01 T02101083  RH  013%=      5-min Rain = 0
KSB1 232354Z 26010KT 21/M08 A3006 RMK A01 T02101082  RH  013%=      5-min Rain = 0
KSB1 232355Z 26011KT 21/M08 A3006 RMK A01 T02111084  RH  013%=      5-min Rain = 0
KSB1 232356Z 26008KT 21/M09 A3006 RMK A01 T02091085  RH  013%=      5-min Rain = 0
KSB1 232357Z 26007KT 21/M08 A3006 RMK A01 T02091084  RH  013%=      5-min Rain = 0
KSB1 232358Z 26007KT 21/M08 A3006 RMK A01 T02091084  RH  013%=      5-min Rain = 0
KSB1 232359Z 28005KT 21/M08 A3006 RMK A01 T02101083  RH  013%=      5-min Rain = 0
KSB1 240000Z 26004KT 21/M08 A3006 RMK A01 T02111081  RH  013%=      5-min Rain = 0
KSB1 240001Z 28007KT 21/M08 A3006 RMK A01 T02121083  RH  013%=      5-min Rain = 0
KSB1 240002Z 27009KT 21/M08 A3006 RMK A01 T02121083  RH  013%=      5-min Rain = 0
KSB1 240003Z 28012KT 21/M08 A3006 RMK A01 T02121083  RH  013%=      5-min Rain = 0
KSB1 240004Z 28011KT 21/M09 A3006 RMK A01 T02121086  RH  013%=      5-min Rain = 0
KSB1 240005Z 28011KT 21/M09 A3006 RMK A01 T02111085  RH  013%=      5-min Rain = 0
KSB1 240006Z 28011KT 21/M09 A3006 RMK A01 T02111085  RH  013%=      5-min Rain = 0
KSB1 240007Z 28010KT 21/M09 A3006 RMK A01 T02101085  RH  013%=      5-min Rain = 0
KSB1 240008Z 27009KT 21/M09 A3006 RMK A01 T02091086  RH  013%=      5-min Rain = 0
KSB1 240009Z 26009KT 21/M09 A3006 RMK A01 T02091086  RH  013%=      5-min Rain = 0
KSB1 240010Z 26011KT 21/M09 A3006 RMK A01 T02091087  RH  013%=      5-min Rain = 0
KSB1 240011Z 27008KT 21/M09 A3006 RMK A01 T02081087  RH  013%=      5-min Rain = 0
KSB1 240012Z 27006KT 21/M09 A3006 RMK A01 T02081087  RH  013%=      5-min Rain = 0
KSB1 240013Z 28005KT 21/M09 A3006 RMK A01 T02081086  RH  013%=      5-min Rain = 0
KSB1 240014Z 29006KT 21/M09 A3006 RMK A01 T02091085  RH  013%=      5-min Rain = 0
KSB1 240015Z 30005KT 21/M09 A3006 RMK A01 T02101086  RH  013%=      5-min Rain = 0
KSB1 240016Z 28005KT 21/M09 A3006 RMK A01 T02101086  RH  013%=      5-min Rain = 0
KSB1 240017Z 30007KT 21/M09 A3006 RMK A01 T02111085  RH  013%=      5-min Rain = 0
KSB1 240018Z 31006KT 21/M09 A3006 RMK A01 T02111087  RH  013%=      5-min Rain = 0
KSB1 240019Z 28006KT 21/M09 A3006 RMK A01 T02111086  RH  013%=      5-min Rain = 0
KSB1 240020Z 29009KT 21/M09 A3006 RMK A01 T02101086  RH  013%=      5-min Rain = 0
KSB1 240021Z 28010KT 21/M09 A3006 RMK A01 T02101089  RH  013%=      5-min Rain = 0
KSB1 240022Z 30009KT 21/M09 A3006 RMK A01 T02091088  RH  013%=      5-min Rain = 0
KSB1 240023Z 32009KT 21/M09 A3006 RMK A01 T02081089  RH  013%=      5-min Rain = 0
KSB1 240024Z 31008KT 21/M09 A3006 RMK A01 T02071090  RH  013%=      5-min Rain = 0
KSB1 240025Z 30008KT 21/M09 A3006 RMK A01 T02061089  RH  013%=      5-min Rain = 0
KSB1 240026Z 30009KT 21/M09 A3006 RMK A01 T02071088  RH  013%=      5-min Rain = 0
KSB1 240027Z 30008KT 21/M09 A3006 RMK A01 T02071088  RH  013%=      5-min Rain = 0
KSB1 240028Z 29011KT 21/M09 A3006 RMK A01 T02071088  RH  013%=      5-min Rain = 0
KSB1 240029Z 29010KT 21/M09 A3006 RMK A01 T02071089  RH  013%=      5-min Rain = 0
KSB1 240030Z 30007KT 21/M09 A3006 RMK A01 T02061089  RH  013%=      5-min Rain = 0
KSB1 240031Z 31006KT 21/M09 A3006 RMK A01 T02061088  RH  013%=      5-min Rain = 0
KSB1 240032Z 30009KT 21/M09 A3006 RMK A01 T02061087  RH  013%=      5-min Rain = 0
KSB1 240033Z 30009KT 21/M09 A3006 RMK A01 T02061089  RH  013%=      5-min Rain = 0
KSB1 240034Z 29008KT 21/M09 A3006 RMK A01 T02061089  RH  013%=      5-min Rain = 0
KSB1 240035Z 31009KT 21/M09 A3006 RMK A01 T02061089  RH  013%=      5-min Rain = 0
KSB1 240036Z 29009KT 21/M09 A3006 RMK A01 T02051090  RH  013%=      5-min Rain = 0
KSB1 240037Z 29011KT 20/M09 A3006 RMK A01 T02041089  RH  013%=      5-min Rain = 0
KSB1 240038Z 30010KT 20/M09 A3006 RMK A01 T02041090  RH  013%=      5-min Rain = 0
KSB1 240039Z 30008KT 20/M09 A3006 RMK A01 T02041089  RH  013%=      5-min Rain = 0
KSB1 240040Z 30010KT 20/M09 A3006 RMK A01 T02041088  RH  013%=      5-min Rain = 0
KSB1 240041Z 28010KT 20/M09 A3006 RMK A01 T02041089  RH  013%=      5-min Rain = 0
KSB1 240042Z 29008KT 20/M09 A3006 RMK A01 T02041089  RH  013%=      5-min Rain = 0
KSB1 240043Z 30009KT 20/M09 A3006 RMK A01 T02031088  RH  013%=      5-min Rain = 0
KSB1 240044Z 30009KT 20/M09 A3006 RMK A01 T02031089  RH  013%=      5-min Rain = 0
KSB1 240045Z 31006KT 20/M09 A3006 RMK A01 T02031089  RH  013%=      5-min Rain = 0
KSB1 240046Z 30009KT 20/M09 A3006 RMK A01 T02031088  RH  013%=      5-min Rain = 0
KSB1 240047Z 30011KT 20/M09 A3006 RMK A01 T02021090  RH  013%=      5-min Rain = 0
KSB1 240048Z 30013KT 20/M09 A3006 RMK A01 T02011092  RH  013%=      5-min Rain = 0
KSB1 240049Z 31011KT 20/M09 A3006 RMK A01 T02001093  RH  013%=      5-min Rain = 0
KSB1 240050Z 30009KT 20/M09 A3007 RMK A01 T02001092  RH  013%=      5-min Rain = 0
KSB1 240051Z 30010KT 20/M09 A3007 RMK A01 T02001092  RH  013%=      5-min Rain = 0
KSB1 240052Z 31010KT 20/M09 A3007 RMK A01 T01991090  RH  013%=      5-min Rain = 0
KSB1 240053Z 29009KT 20/M09 A3007 RMK A01 T01991091  RH  013%=      5-min Rain = 0
KSB1 240054Z 29009KT 20/M09 A3007 RMK A01 T01991091  RH  013%=      5-min Rain = 0
KSB1 240055Z 29008KT 20/M09 A3007 RMK A01 T01991090  RH  013%=      5-min Rain = 0
KSB1 240056Z 30008KT 20/M09 A3007 RMK A01 T01991089  RH  013%=      5-min Rain = 0
KSB1 240057Z 30008KT 20/M09 A3007 RMK A01 T01981090  RH  013%=      5-min Rain = 0
KSB1 240058Z 29009KT 20/M09 A3007 RMK A01 T01971090  RH  013%=      5-min Rain = 0
KSB1 240059Z 28009KT 20/M09 A3007 RMK A01 T01961091  RH  014%=      5-min Rain = 0
KSB1 240100Z 29010KT 20/M09 A3007 RMK A01 T01951091  RH  014%=      5-min Rain = 0
KSB1 240101Z 29009KT 19/M09 A3007 RMK A01 T01941091  RH  014%=      5-min Rain = 0
KSB1 240102Z 29009KT 19/M09 A3007 RMK A01 T01931091  RH  014%=      5-min Rain = 0
KSB1 240103Z 30008KT 19/M09 A3007 RMK A01 T01931090  RH  014%=      5-min Rain = 0
KSB1 240104Z 30007KT 19/M09 A3007 RMK A01 T01931089  RH  014%=      5-min Rain = 0
KSB1 240105Z 30007KT 19/M09 A3007 RMK A01 T01921089  RH  014%=      5-min Rain = 0
KSB1 240106Z 31007KT 19/M09 A3007 RMK A01 T01921089  RH  014%=      5-min Rain = 0
KSB1 240107Z 30007KT 19/M09 A3008 RMK A01 T01921088  RH  014%=      5-min Rain = 0
KSB1 240108Z 30009KT 19/M09 A3008 RMK A01 T01911088  RH  014%=      5-min Rain = 0
KSB1 240109Z 29009KT 19/M09 A3008 RMK A01 T01911089  RH  014%=      5-min Rain = 0
KSB1 240110Z 29007KT 19/M09 A3008 RMK A01 T01911088  RH  014%=      5-min Rain = 0
KSB1 240111Z 30008KT 19/M09 A3008 RMK A01 T01901088  RH  014%=      5-min Rain = 0
KSB1 240112Z 29007KT 19/M09 A3008 RMK A01 T01901089  RH  014%=      5-min Rain = 0
KSB1 240113Z 30007KT 19/M09 A3008 RMK A01 T01901088  RH  014%=      5-min Rain = 0
KSB1 240114Z 31009KT 19/M09 A3008 RMK A01 T01901089  RH  014%=      5-min Rain = 0
KSB1 240115Z 31008KT 19/M09 A3008 RMK A01 T01901088  RH  014%=      5-min Rain = 0
KSB1 240116Z 31007KT 19/M09 A3008 RMK A01 T01891088  RH  014%=      5-min Rain = 0
KSB1 240117Z 31010KT 19/M09 A3008 RMK A01 T01881088  RH  015%=      5-min Rain = 0
KSB1 240118Z 31009KT 19/M09 A3008 RMK A01 T01881088  RH  014%=      5-min Rain = 0
KSB1 240119Z 31010KT 19/M09 A3008 RMK A01 T01881090  RH  014%=      5-min Rain = 0
KSB1 240120Z 31009KT 19/M09 A3008 RMK A01 T01881090  RH  014%=      5-min Rain = 0
KSB1 240121Z 31009KT 19/M09 A3008 RMK A01 T01881090  RH  014%=      5-min Rain = 0
KSB1 240122Z 31009KT 19/M09 A3008 RMK A01 T01871090  RH  014%=      5-min Rain = 0
KSB1 240123Z 31010KT 19/M09 A3008 RMK A01 T01871090  RH  014%=      5-min Rain = 0
KSB1 240124Z 31010KT 19/M09 A3008 RMK A01 T01861089  RH  015%=      5-min Rain = 0
KSB1 240125Z 31010KT 19/M09 A3008 RMK A01 T01861090  RH  014%=      5-min Rain = 0
KSB1 240126Z 31010KT 19/M09 A3008 RMK A01 T01861090  RH  014%=      5-min Rain = 0
KSB1 240127Z 31009KT 19/M09 A3008 RMK A01 T01861090  RH  015%=      5-min Rain = 0
KSB1 240128Z 31009KT 19/M09 A3008 RMK A01 T01851090  RH  015%=      5-min Rain = 0
KSB1 240129Z 31010KT 19/M09 A3008 RMK A01 T01851089  RH  015%=      5-min Rain = 0
KSB1 240130Z 31010KT 19/M09 A3008 RMK A01 T01851090  RH  015%=      5-min Rain = 0
KSB1 240131Z 31009KT 19/M09 A3008 RMK A01 T01851089  RH  015%=      5-min Rain = 0
KSB1 240132Z 31009KT 19/M09 A3008 RMK A01 T01851089  RH  015%=      5-min Rain = 0
KSB1 240133Z 32009KT 18/M09 A3008 RMK A01 T01841087  RH  015%=      5-min Rain = 0
KSB1 240134Z 31009KT 18/M09 A3008 RMK A01 T01831088  RH  015%=      5-min Rain = 0
KSB1 240135Z 31008KT 18/M09 A3008 RMK A01 T01831088  RH  015%=      5-min Rain = 0
KSB1 240136Z 32008KT 18/M09 A3008 RMK A01 T01821088  RH  015%=      5-min Rain = 0
KSB1 240137Z 32009KT 18/M09 A3008 RMK A01 T01811087  RH  015%=      5-min Rain = 0
KSB1 240138Z 32008KT 18/M09 A3008 RMK A01 T01811087  RH  015%=      5-min Rain = 0
KSB1 240139Z 32008KT 18/M09 A3008 RMK A01 T01811086  RH  015%=      5-min Rain = 0
KSB1 240140Z 32008KT 18/M09 A3008 RMK A01 T01811086  RH  016%=      5-min Rain = 0
KSB1 240141Z 32008KT 18/M09 A3008 RMK A01 T01801086  RH  016%=      5-min Rain = 0
KSB1 240142Z 32008KT 18/M09 A3008 RMK A01 T01801086  RH  016%=      5-min Rain = 0
KSB1 240143Z 32008KT 18/M09 A3008 RMK A01 T01801085  RH  016%=      5-min Rain = 0
KSB1 240144Z 32009KT 18/M09 A3008 RMK A01 T01791085  RH  016%=      5-min Rain = 0
KSB1 240145Z 32009KT 18/M09 A3008 RMK A01 T01791085  RH  016%=      5-min Rain = 0
KSB1 240146Z 32009KT 18/M09 A3008 RMK A01 T01791085  RH  016%=      5-min Rain = 0
KSB1 240147Z 32010KT 18/M08 A3008 RMK A01 T01791084  RH  016%=      5-min Rain = 0
KSB1 240148Z 32010KT 18/M08 A3008 RMK A01 T01791084  RH  016%=      5-min Rain = 0
KSB1 240149Z 32009KT 18/M08 A3008 RMK A01 T01791084  RH  016%=      5-min Rain = 0
KSB1 240150Z 32009KT 18/M08 A3008 RMK A01 T01791084  RH  016%=      5-min Rain = 0
KSB1 240151Z 32010KT 18/M08 A3008 RMK A01 T01791084  RH  016%=      5-min Rain = 0
KSB1 240152Z 32010KT 18/M08 A3008 RMK A01 T01791084  RH  016%=      5-min Rain = 0
KSB1 240153Z 32009KT 18/M08 A3008 RMK A01 T01791084  RH  016%=      5-min Rain = 0
KSB1 240154Z 32009KT 18/M08 A3008 RMK A01 T01791084  RH  016%=      5-min Rain = 0
KSB1 240155Z 32011KT 18/M08 A3008 RMK A01 T01791084  RH  016%=      5-min Rain = 0
KSB1 240156Z 32010KT 18/M08 A3008 RMK A01 T01781083  RH  016%=      5-min Rain = 0
KSB1 240157Z 32009KT 18/M08 A3008 RMK A01 T01781083  RH  016%=      5-min Rain = 0
KSB1 240158Z 32010KT 18/M08 A3008 RMK A01 T01781083  RH  016%=      5-min Rain = 0
KSB1 240159Z 32009KT 18/M08 A3008 RMK A01 T01771083  RH  016%=      5-min Rain = 0
KSB1 240200Z 32010KT 18/M08 A3008 RMK A01 T01771082  RH  016%=      5-min Rain = 0
KSB1 240201Z 32010KT 18/M08 A3008 RMK A01 T01771082  RH  016%=      5-min Rain = 0
KSB1 240202Z 32009KT 18/M08 A3008 RMK A01 T01771082  RH  016%=      5-min Rain = 0
KSB1 240203Z 32008KT 18/M08 A3008 RMK A01 T01771082  RH  016%=      5-min Rain = 0
KSB1 240204Z 32008KT 18/M08 A3008 RMK A01 T01761081  RH  016%=      5-min Rain = 0
KSB1 240205Z 32008KT 18/M08 A3008 RMK A01 T01761082  RH  016%=      5-min Rain = 0
KSB1 240206Z 32007KT 18/M08 A3008 RMK A01 T01761081  RH  016%=      5-min Rain = 0
KSB1 240207Z 32008KT 18/M08 A3008 RMK A01 T01761081  RH  017%=      5-min Rain = 0
KSB1 240208Z 32008KT 18/M08 A3008 RMK A01 T01751081  RH  017%=      5-min Rain = 0
KSB1 240209Z 32009KT 18/M08 A3008 RMK A01 T01751081  RH  017%=      5-min Rain = 0
KSB1 240210Z 32007KT 18/M08 A3008 RMK A01 T01751081  RH  017%=      5-min Rain = 0
KSB1 240211Z 32008KT 17/M08 A3008 RMK A01 T01741081  RH  017%=      5-min Rain = 0
KSB1 240212Z 32009KT 17/M08 A3008 RMK A01 T01741080  RH  017%=      5-min Rain = 0
KSB1 240213Z 32009KT 17/M08 A3008 RMK A01 T01731080  RH  017%=      5-min Rain = 0
KSB1 240214Z 32009KT 17/M08 A3008 RMK A01 T01731081  RH  017%=      5-min Rain = 0
KSB1 240215Z 32009KT 17/M08 A3008 RMK A01 T01731081  RH  017%=      5-min Rain = 0
KSB1 240216Z 32008KT 17/M08 A3008 RMK A01 T01741080  RH  017%=      5-min Rain = 0
KSB1 240217Z 32009KT 17/M08 A3008 RMK A01 T01741080  RH  017%=      5-min Rain = 0
KSB1 240218Z 32009KT 17/M08 A3008 RMK A01 T01731080  RH  017%=      5-min Rain = 0
KSB1 240219Z 32010KT 17/M08 A3008 RMK A01 T01741080  RH  017%=      5-min Rain = 0
KSB1 240220Z 32009KT 17/M08 A3008 RMK A01 T01731080  RH  017%=      5-min Rain = 0
KSB1 240221Z 32008KT 17/M08 A3008 RMK A01 T01731080  RH  017%=      5-min Rain = 0
KSB1 240222Z 32008KT 17/M08 A3008 RMK A01 T01731079  RH  017%=      5-min Rain = 0
KSB1 240223Z 32007KT 17/M08 A3008 RMK A01 T01721079  RH  017%=      5-min Rain = 0
KSB1 240224Z 32008KT 17/M08 A3008 RMK A01 T01711079  RH  017%=      5-min Rain = 0
KSB1 240225Z 33008KT 17/M08 A3008 RMK A01 T01711079  RH  017%=      5-min Rain = 0
KSB1 240226Z 32008KT 17/M08 A3008 RMK A01 T01701078  RH  018%=      5-min Rain = 0
KSB1 240227Z 33009KT 17/M08 A3008 RMK A01 T01691078  RH  018%=      5-min Rain = 0
KSB1 240228Z 32009KT 17/M08 A3008 RMK A01 T01681078  RH  018%=      5-min Rain = 0
KSB1 240229Z 32008KT 17/M08 A3008 RMK A01 T01671078  RH  018%=      5-min Rain = 0
KSB1 240230Z 32009KT 17/M08 A3008 RMK A01 T01661078  RH  018%=      5-min Rain = 0
KSB1 240231Z 32009KT 17/M08 A3008 RMK A01 T01661078  RH  018%=      5-min Rain = 0
KSB1 240232Z 32009KT 17/M08 A3008 RMK A01 T01661078  RH  018%=      5-min Rain = 0
KSB1 240233Z 32009KT 17/M08 A3008 RMK A01 T01671079  RH  018%=      5-min Rain = 0
KSB1 240234Z 32009KT 17/M08 A3008 RMK A01 T01671078  RH  018%=      5-min Rain = 0
KSB1 240235Z 32008KT 17/M08 A3008 RMK A01 T01681078  RH  018%=      5-min Rain = 0
KSB1 240236Z 32008KT 17/M08 A3008 RMK A01 T01681078  RH  018%=      5-min Rain = 0
KSB1 240237Z 32006KT 17/M08 A3009 RMK A01 T01681078  RH  018%=      5-min Rain = 0
KSB1 240238Z 31007KT 17/M08 A3009 RMK A01 T01681078  RH  018%=      5-min Rain = 0
KSB1 240239Z 31006KT 17/M08 A3009 RMK A01 T01681078  RH  018%=      5-min Rain = 0
KSB1 240240Z 32006KT 17/M08 A3009 RMK A01 T01681078  RH  018%=      5-min Rain = 0
KSB1 240241Z 31006KT 17/M08 A3009 RMK A01 T01691077  RH  018%=      5-min Rain = 0
KSB1 240242Z 32007KT 17/M08 A3009 RMK A01 T01691077  RH  018%=      5-min Rain = 0
KSB1 240243Z 32006KT 17/M08 A3009 RMK A01 T01691077  RH  018%=      5-min Rain = 0
KSB1 240244Z 32006KT 17/M08 A3009 RMK A01 T01691077  RH  018%=      5-min Rain = 0
KSB1 240245Z 32006KT 17/M08 A3009 RMK A01 T01691077  RH  018%=      5-min Rain = 0
KSB1 240246Z 32006KT 17/M08 A3009 RMK A01 T01691077  RH  018%=      5-min Rain = 0
KSB1 240247Z 32005KT 17/M08 A3009 RMK A01 T01681077  RH  018%=      5-min Rain = 0
KSB1 240248Z 32005KT 17/M08 A3009 RMK A01 T01671077  RH  018%=      5-min Rain = 0
KSB1 240249Z 32005KT 17/M08 A3009 RMK A01 T01671077  RH  018%=      5-min Rain = 0
KSB1 240250Z 32005KT 17/M08 A3009 RMK A01 T01671077  RH  018%=      5-min Rain = 0
KSB1 240251Z 31004KT 17/M08 A3009 RMK A01 T01661076  RH  018%=      5-min Rain = 0
KSB1 240252Z 31004KT 17/M08 A3009 RMK A01 T01651076  RH  018%=      5-min Rain = 0
KSB1 240253Z 30004KT 16/M08 A3009 RMK A01 T01641076  RH  019%=      5-min Rain = 0
KSB1 240254Z 27003KT 16/M07 A3009 RMK A01 T01631074  RH  019%=      5-min Rain = 0
KSB1 240255Z 28003KT 16/M08 A3009 RMK A01 T01591075  RH  019%=      5-min Rain = 0
KSB1 240256Z 29003KT 16/M08 A3009 RMK A01 T01551076  RH  020%=      5-min Rain = 0
KSB1 240257Z 30004KT 15/M08 A3009 RMK A01 T01511076  RH  020%=      5-min Rain = 0
KSB1 240258Z 28004KT 15/M08 A301 RMK A01 T01501075  RH  020%=      5-min Rain = 0
KSB1 240259Z 28005KT 15/M08 A301 RMK A01 T01501075  RH  020%=      5-min Rain = 0
KSB1 240300Z 29006KT 15/M08 A301 RMK A01 T01491076  RH  020%=      5-min Rain = 0
KSB1 240301Z 29005KT 15/M07 A301 RMK A01 T01491074  RH  021%=      5-min Rain = 0
KSB1 240302Z 29005KT 15/M08 A301 RMK A01 T01501075  RH  020%=      5-min Rain = 0
KSB1 240303Z 30005KT 15/M08 A301 RMK A01 T01521075  RH  020%=      5-min Rain = 0
KSB1 240304Z 29007KT 16/M08 A301 RMK A01 T01551076  RH  020%=      5-min Rain = 0
KSB1 240305Z 29006KT 16/M08 A301 RMK A01 T01561075  RH  020%=      5-min Rain = 0
KSB1 240306Z 29006KT 16/M08 A301 RMK A01 T01571075  RH  020%=      5-min Rain = 0
KSB1 240307Z 30006KT 16/M08 A301 RMK A01 T01581075  RH  019%=      5-min Rain = 0
KSB1 240308Z 30006KT 16/M08 A301 RMK A01 T01591075  RH  019%=      5-min Rain = 0
KSB1 240309Z 30006KT 16/M07 A301 RMK A01 T01601074  RH  019%=      5-min Rain = 0
KSB1 240310Z 30006KT 16/M08 A301 RMK A01 T01601075  RH  019%=      5-min Rain = 0
KSB1 240311Z 30007KT 16/M07 A301 RMK A01 T01611073  RH  019%=      5-min Rain = 0
KSB1 240312Z 31007KT 16/M07 A301 RMK A01 T01621073  RH  019%=      5-min Rain = 0
KSB1 240313Z 31007KT 16/M07 A301 RMK A01 T01641073  RH  019%=      5-min Rain = 0
KSB1 240314Z 31007KT 16/M07 A301 RMK A01 T01641073  RH  019%=      5-min Rain = 0
KSB1 240315Z 31007KT 17/M07 A301 RMK A01 T01651072  RH  019%=      5-min Rain = 0
KSB1 240316Z 31007KT 17/M07 A301 RMK A01 T01651073  RH  019%=      5-min Rain = 0
KSB1 240317Z 31006KT 17/M07 A301 RMK A01 T01661074  RH  019%=      5-min Rain = 0
KSB1 240318Z 31006KT 17/M07 A301 RMK A01 T01671074  RH  018%=      5-min Rain = 0
KSB1 240319Z 31006KT 17/M07 A301 RMK A01 T01681074  RH  018%=      5-min Rain = 0
KSB1 240320Z 31006KT 17/M07 A301 RMK A01 T01681073  RH  019%=      5-min Rain = 0
KSB1 240321Z 31006KT 17/M07 A301 RMK A01 T01671073  RH  019%=      5-min Rain = 0
KSB1 240322Z 31007KT 17/M07 A3011 RMK A01 T01671073  RH  019%=      5-min Rain = 0
KSB1 240323Z 31007KT 17/M07 A3011 RMK A01 T01661073  RH  019%=      5-min Rain = 0
KSB1 240324Z 30007KT 17/M07 A3011 RMK A01 T01661073  RH  019%=      5-min Rain = 0
KSB1 240325Z 30007KT 17/M07 A3011 RMK A01 T01661072  RH  019%=      5-min Rain = 0
KSB1 240326Z 31006KT 17/M07 A3011 RMK A01 T01661071  RH  019%=      5-min Rain = 0
KSB1 240327Z 30006KT 17/M07 A3011 RMK A01 T01651071  RH  019%=      5-min Rain = 0
KSB1 240328Z 30007KT 17/M07 A3011 RMK A01 T01651071  RH  019%=      5-min Rain = 0
KSB1 240329Z 30007KT 17/M07 A3011 RMK A01 T01651071  RH  019%=      5-min Rain = 0
KSB1 240330Z 31007KT 17/M07 A3011 RMK A01 T01651072  RH  019%=      5-min Rain = 0
KSB1 240331Z 31007KT 17/M07 A3011 RMK A01 T01661072  RH  019%=      5-min Rain = 0
KSB1 240332Z 31007KT 17/M07 A3011 RMK A01 T01671072  RH  019%=      5-min Rain = 0
KSB1 240333Z 31008KT 17/M07 A3011 RMK A01 T01671072  RH  019%=      5-min Rain = 0
KSB1 240334Z 30008KT 17/M07 A3011 RMK A01 T01671072  RH  019%=      5-min Rain = 0
KSB1 240335Z 30008KT 17/M07 A3011 RMK A01 T01671072  RH  019%=      5-min Rain = 0
KSB1 240336Z 29008KT 17/M07 A3011 RMK A01 T01661072  RH  019%=      5-min Rain = 0
KSB1 240337Z 29007KT 17/M07 A3011 RMK A01 T01671072  RH  019%=      5-min Rain = 0
KSB1 240338Z 29008KT 17/M07 A3011 RMK A01 T01681073  RH  019%=      5-min Rain = 0
KSB1 240339Z 30008KT 17/M07 A3011 RMK A01 T01681073  RH  019%=      5-min Rain = 0
KSB1 240340Z 30007KT 17/M07 A3011 RMK A01 T01681073  RH  019%=      5-min Rain = 0
KSB1 240341Z 29007KT 17/M07 A3011 RMK A01 T01681073  RH  019%=      5-min Rain = 0
KSB1 240342Z 29007KT 17/M07 A3011 RMK A01 T01671074  RH  019%=      5-min Rain = 0
KSB1 240343Z 29007KT 17/M07 A3011 RMK A01 T01661074  RH  019%=      5-min Rain = 0
KSB1 240344Z 29006KT 17/M07 A3011 RMK A01 T01661073  RH  019%=      5-min Rain = 0
KSB1 240345Z 29007KT 17/M07 A3011 RMK A01 T01661073  RH  019%=      5-min Rain = 0
KSB1 240346Z 29006KT 17/M07 A3011 RMK A01 T01661073  RH  019%=      5-min Rain = 0
KSB1 240347Z 29006KT 17/M07 A3011 RMK A01 T01661073  RH  019%=      5-min Rain = 0
KSB1 240348Z 29006KT 17/M07 A3011 RMK A01 T01661074  RH  019%=      5-min Rain = 0
KSB1 240349Z 29006KT 17/M07 A3011 RMK A01 T01661073  RH  019%=      5-min Rain = 0
KSB1 240350Z 29006KT 17/M07 A3011 RMK A01 T01651073  RH  019%=      5-min Rain = 0
KSB1 240351Z 29005KT 17/M07 A3011 RMK A01 T01651072  RH  019%=      5-min Rain = 0
KSB1 240352Z 29005KT 16/M07 A3012 RMK A01 T01631072  RH  019%=      5-min Rain = 0
KSB1 240353Z 29005KT 16/M07 A3012 RMK A01 T01631073  RH  019%=      5-min Rain = 0
KSB1 240354Z 29005KT 16/M07 A3012 RMK A01 T01631072  RH  019%=      5-min Rain = 0
KSB1 240355Z 29004KT 16/M07 A3012 RMK A01 T01631072  RH  019%=      5-min Rain = 0
KSB1 240356Z 30003KT 16/M07 A3012 RMK A01 T01621071  RH  019%=      5-min Rain = 0
KSB1 240357Z 05001KT 16/M07 A3012 RMK A01 T01601072  RH  020%=      5-min Rain = 0
KSB1 240358Z 12002KT 16/M07 A3012 RMK A01 T01561072  RH  020%=      5-min Rain = 0
KSB1 240359Z 13003KT 15/M07 A3012 RMK A01 T01501070  RH  021%=      5-min Rain = 0
KSB1 240400Z 15003KT 15/M07 A3012 RMK A01 T01451070  RH  022%=      5-min Rain = 0
KSB1 240401Z 15004KT 14/M07 A3012 RMK A01 T01401068  RH  023%=      5-min Rain = 0
KSB1 240402Z 15004KT 14/M07 A3012 RMK A01 T01351069  RH  024%=      5-min Rain = 0
KSB1 240403Z 15004KT 13/M07 A3012 RMK A01 T01311070  RH  024%=      5-min Rain = 0
KSB1 240404Z 14004KT 13/M07 A3012 RMK A01 T01291070  RH  024%=      5-min Rain = 0
KSB1 240405Z 14003KT 13/M07 A3012 RMK A01 T01291070  RH  024%=      5-min Rain = 0
KSB1 240406Z 14003KT 13/M07 A3012 RMK A01 T01291069  RH  025%=      5-min Rain = 0
KSB1 240407Z 13003KT 13/M07 A3012 RMK A01 T01291068  RH  025%=      5-min Rain = 0
KSB1 240408Z 14002KT 13/M07 A3012 RMK A01 T01291071  RH  024%=      5-min Rain = 0
KSB1 240409Z 15002KT 13/M07 A3012 RMK A01 T01311071  RH  024%=      5-min Rain = 0
KSB1 240410Z 14002KT 13/M07 A3012 RMK A01 T01331072  RH  023%=      5-min Rain = 0
KSB1 240411Z 14002KT 14/M07 A3012 RMK A01 T01351073  RH  023%=      5-min Rain = 0
KSB1 240412Z 14002KT 14/M07 A3012 RMK A01 T01371073  RH  023%=      5-min Rain = 0
KSB1 240413Z 14002KT 14/M07 A3012 RMK A01 T01391073  RH  022%=      5-min Rain = 0
KSB1 240414Z 14002KT 14/M07 A3012 RMK A01 T01411073  RH  022%=      5-min Rain = 0
KSB1 240415Z 13002KT 14/M07 A3012 RMK A01 T01421074  RH  022%=      5-min Rain = 0
KSB1 240416Z 15002KT 14/M07 A3012 RMK A01 T01431073  RH  022%=      5-min Rain = 0
KSB1 240417Z 16002KT 14/M07 A3012 RMK A01 T01441073  RH  022%=      5-min Rain = 0
KSB1 240418Z 13003KT 15/M07 A3012 RMK A01 T01451074  RH  021%=      5-min Rain = 0
KSB1 240419Z 11002KT 15/M07 A3012 RMK A01 T01451070  RH  022%=      5-min Rain = 0
KSB1 240420Z 13002KT 14/M07 A3012 RMK A01 T01431068  RH  023%=      5-min Rain = 0
KSB1 240421Z 14002KT 14/M07 A3012 RMK A01 T01431074  RH  022%=      5-min Rain = 0
KSB1 240422Z 11001KT 15/M07 A3012 RMK A01 T01451074  RH  021%=      5-min Rain = 0
KSB1 240423Z 12001KT 15/M07 A3012 RMK A01 T01461074  RH  021%=      5-min Rain = 0
KSB1 240424Z 12000KT 15/M07 A3012 RMK A01 T01471072  RH  021%=      5-min Rain = 0
KSB1 240425Z 13001KT 15/M07 A3012 RMK A01 T01461073  RH  021%=      5-min Rain = 0
KSB1 240426Z 13002KT 15/M07 A3012 RMK A01 T01451074  RH  021%=      5-min Rain = 0
KSB1 240427Z 14002KT 15/M08 A3012 RMK A01 T01461075  RH  021%=      5-min Rain = 0
KSB1 240428Z 15003KT 15/M08 A3012 RMK A01 T01461075  RH  021%=      5-min Rain = 0
KSB1 240429Z 15004KT 15/M07 A3012 RMK A01 T01461074  RH  021%=      5-min Rain = 0
KSB1 240430Z 15004KT 15/M07 A3012 RMK A01 T01461074  RH  021%=      5-min Rain = 0
KSB1 240431Z 16004KT 15/M07 A3012 RMK A01 T01461073  RH  021%=      5-min Rain = 0
KSB1 240432Z 16003KT 15/M07 A3012 RMK A01 T01461073  RH  021%=      5-min Rain = 0
KSB1 240433Z 17003KT 15/M07 A3012 RMK A01 T01451073  RH  021%=      5-min Rain = 0
KSB1 240434Z 17003KT 15/M07 A3012 RMK A01 T01451073  RH  021%=      5-min Rain = 0
KSB1 240435Z 18003KT 15/M07 A3012 RMK A01 T01451073  RH  022%=      5-min Rain = 0
KSB1 240436Z 18003KT 14/M07 A3012 RMK A01 T01441073  RH  021%=      5-min Rain = 0
KSB1 240437Z 19003KT 14/M07 A3012 RMK A01 T01431073  RH  022%=      5-min Rain = 0
KSB1 240438Z 19003KT 14/M07 A3012 RMK A01 T01431073  RH  022%=      5-min Rain = 0
KSB1 240439Z 19003KT 14/M07 A3012 RMK A01 T01421073  RH  022%=      5-min Rain = 0
KSB1 240440Z 20003KT 14/M07 A3012 RMK A01 T01421073  RH  022%=      5-min Rain = 0
KSB1 240441Z 19003KT 14/M07 A3012 RMK A01 T01421073  RH  022%=      5-min Rain = 0
KSB1 240442Z 20002KT 14/M07 A3012 RMK A01 T01431073  RH  022%=      5-min Rain = 0
KSB1 240443Z 22002KT 14/M07 A3012 RMK A01 T01441074  RH  021%=      5-min Rain = 0
KSB1 240444Z 22002KT 15/M07 A3012 RMK A01 T01451074  RH  021%=      5-min Rain = 0
KSB1 240445Z 21002KT 15/M08 A3012 RMK A01 T01461075  RH  021%=      5-min Rain = 0
KSB1 240446Z 21002KT 15/M08 A3012 RMK A01 T01461075  RH  021%=      5-min Rain = 0
KSB1 240447Z 22002KT 15/M08 A3012 RMK A01 T01461075  RH  021%=      5-min Rain = 0
KSB1 240448Z 22002KT 15/M07 A3012 RMK A01 T01471074  RH  021%=      5-min Rain = 0
KSB1 240449Z 22002KT 15/M08 A3012 RMK A01 T01471075  RH  021%=      5-min Rain = 0
KSB1 240450Z 22001KT 15/M07 A3012 RMK A01 T01471074  RH  021%=      5-min Rain = 0
KSB1 240451Z 22001KT 15/M07 A3012 RMK A01 T01481074  RH  021%=      5-min Rain = 0
KSB1 240452Z 22001KT 15/M07 A3012 RMK A01 T01481074  RH  021%=      5-min Rain = 0
KSB1 240453Z 22001KT 15/M07 A3012 RMK A01 T01491074  RH  021%=      5-min Rain = 0
KSB1 240454Z 22001KT 15/M07 A3012 RMK A01 T01491074  RH  021%=      5-min Rain = 0
KSB1 240455Z 22002KT 15/M07 A3012 RMK A01 T01511074  RH  021%=      5-min Rain = 0
KSB1 240456Z 22002KT 15/M07 A3012 RMK A01 T01511074  RH  021%=      5-min Rain = 0
KSB1 240457Z 23001KT 15/M07 A3012 RMK A01 T01511073  RH  021%=      5-min Rain = 0
KSB1 240458Z 23002KT 15/M07 A3012 RMK A01 T01521074  RH  020%=      5-min Rain = 0
KSB1 240459Z 24002KT 15/M07 A3012 RMK A01 T01521074  RH  020%=      5-min Rain = 0

Page generated in 0.0493 seconds.